Data for 09/12/2012

Time Sea-Level Adjusted Pressure Absolute Pressure Temperature Relative Humidity Dew Point Precipitation   
(mb) (inHg) (mb) (inHg) (C) (F) (%) (C) (F) (mm) (in)
00:01 1026 30.3 855 25.25 0.9 33.7 60 -6 21.2 0 0
00:02 1026 30.3 855 25.25 0.9 33.7 59 -6.2 20.9 0 0
00:03 1026 30.3 855 25.25 1 33.7 60 -6 21.1 0 0
00:04 1026 30.3 855 25.25 1 33.7 60 -6 21.2 0 0
00:05 1026 30.3 855 25.25 1 33.8 60 -6 21.2 0 0
00:06 1026 30.3 855 25.25 0.9 33.7 59 -6.1 21 0 0
00:07 1026 30.3 855 25.25 0.9 33.5 59 -6.3 20.7 0 0
00:08 1026 30.3 855 25.25 0.8 33.4 59 -6.4 20.5 0 0
00:09 1026 30.3 855 25.25 0.7 33.2 59 -6.5 20.4 0 0
00:10 1026 30.3 855 25.25 0.5 33 59 -6.6 20.2 0 0
00:11 1026 30.3 855 25.25 0.5 32.8 59 -6.5 20.2 0 0
00:12 1026 30.3 855 25.25 0.3 32.6 59 -6.7 19.9 0 0
00:13 1026 30.3 855 25.25 0.3 32.5 59 -6.9 19.6 0 0
00:14 1026 30.3 855 25.25 0.3 32.6 57 -7.1 19.2 0 0
00:15 1026 30.3 855 25.25 0.5 32.9 55 -7.6 18.3 0 0
00:16 1026 30.3 855 25.25 0.6 33.1 54 -7.7 18.1 0 0
00:17 1026 30.3 855 25.25 0.7 33.3 53 -7.8 18 0 0
00:18 1026 30.3 855 25.25 0.6 33.1 52 -8 17.6 0 0
00:19 1026 30.3 855 25.25 0.6 33.1 52 -8.1 17.4 0 0
00:20 1026 30.3 855 25.25 0.5 32.9 52 -8.2 17.2 0 0
00:21 1026 30.3 855 25.25 0.5 33 52 -8.1 17.4 0 0
00:22 1026 30.3 855 25.25 0.5 32.9 53 -8 17.5 0 0
00:23 1026 30.3 855 25.25 0.5 32.9 54 -7.8 17.9 0 0
00:24 1026 30.3 855 25.25 0.7 33.2 54 -7.6 18.4 0 0
00:25 1026 30.3 855 25.25 0.8 33.5 54 -7.3 18.8 0 0
00:26 1026 30.3 855 25.25 1 33.8 54 -7.3 18.8 0 0
00:27 1026 30.3 855 25.25 1.1 34.1 54 -7.3 18.9 0 0
00:28 1026 30.3 855 25.25 1.2 34.1 54 -7.2 19 0 0
00:29 1026 30.3 855 25.25 1.2 34.2 54 -7.2 19 0 0
00:30 1026 30.3 855 25.25 1.2 34.1 54 -7.2 19 0 0
00:31 1026 30.3 855 25.25 1.2 34.1 54 -7.1 19.2 0 0
00:32 1026 30.3 855 25.25 1.1 33.9 54 -7.1 19.2 0 0
00:33 1026 30.3 855 25.25 1 33.8 54 -7.2 19.1 0 0
00:34 1026 30.3 855 25.25 1.1 33.9 54 -7.2 19.1 0 0
00:35 1026 30.3 855 25.25 1.1 34 54 -7.2 19 0 0
00:36 1026 30.3 855 25.25 1.3 34.3 53 -7.3 18.9 0 0
00:37 1026 30.3 855 25.25 1.5 34.7 52 -7.4 18.7 0 0
00:38 1026 30.3 855 25.25 1.7 35.1 51 -7.4 18.7 0 0
00:39 1026 30.3 855 25.25 1.8 35.3 51 -7.2 19 0 0
00:40 1026 30.3 855 25.25 1.8 35.2 51 -7.3 18.9 0 0
00:41 1026 30.3 855 25.25 1.8 35.2 51 -7.4 18.7 0 0
00:42 1026 30.3 855 25.25 1.9 35.5 50 -7.5 18.4 0 0
00:43 1026 30.3 855 25.25 2.2 36 48 -7.6 18.3 0 0
00:44 1026 30.3 855 25.25 2.4 36.3 48 -7.5 18.5 0 0
00:45 1026 30.3 855 25.25 2.3 36.1 49 -7.5 18.6 0 0
00:46 1026 30.3 855 25.25 2.3 36.1 49 -7.4 18.7 0 0
00:47 1026 30.3 855 25.25 2.2 36 49 -7.5 18.5 0 0
00:48 1026 30.3 855 25.25 2.2 35.9 49 -7.5 18.6 0 0
00:49 1026 30.3 855 25.25 2.1 35.7 50 -7.4 18.7 0 0
00:50 1026 30.3 855 25.25 1.8 35.3 50 -7.5 18.5 0 0
00:51 1026 30.3 855 25.25 1.8 35.3 50 -7.5 18.6 0 0
00:52 1026 30.3 855 25.25 1.9 35.4 49 -7.6 18.3 0 0
00:53 1026 30.3 855 25.25 2 35.5 50 -7.4 18.6 0 0
00:54 1026 30.3 855 25.25 1.8 35.2 51 -7.4 18.6 0 0
00:55 1026 30.3 855 25.25 1.6 34.9 51 -7.4 18.7 0 0
00:56 1026 30.3 855 25.25 1.4 34.6 52 -7.4 18.7 0 0
00:57 1026 30.3 855 25.25 1.3 34.3 52 -7.4 18.6 0 0
00:58 1026 30.3 855 25.25 1.3 34.3 52 -7.4 18.6 0 0
00:59 1026 30.3 855 25.25 1.3 34.3 53 -7.4 18.7 0 0
01:00 1026 30.3 855 25.25 1.1 34 53 -7.5 18.5 0 0
01:01 1026 30.3 855 25.25 1.1 34 52 -7.6 18.3 0 0
01:02 1026 30.3 855 25.25 1.2 34.1 52 -7.7 18.1 0 0
01:03 1026 30.3 855 25.25 1.2 34.2 52 -7.6 18.2 0 0
01:04 1026 30.3 855 25.25 1.2 34.1 52 -7.6 18.4 0 0
01:05 1026 30.3 855 25.25 1 33.9 53 -7.5 18.6 0 0
01:06 1026 30.3 855 25.25 0.9 33.7 54 -7.5 18.6 0 0
01:07 1026 30.3 855 25.25 1 33.9 53 -7.5 18.5 0 0
01:08 1026 30.3 855 25.25 1.2 34.1 52 -7.5 18.5 0 0
01:09 1026 30.3 855 25.25 1.3 34.3 52 -7.5 18.5 0 0
01:10 1026 30.3 855 25.25 1.3 34.3 52 -7.4 18.7 0 0
01:11 1026 30.3 855 25.25 1.3 34.3 53 -7.4 18.7 0 0
01:12 1026 30.3 855 25.25 1.3 34.3 52 -7.4 18.6 0 0
01:13 1026 30.3 855 25.25 1.4 34.5 52 -7.4 18.6 0 0
01:14 1026 30.3 855 25.25 1.5 34.6 52 -7.5 18.6 0 0
01:15 1026 30.3 855 25.25 1.5 34.8 51 -7.4 18.6 0 0
01:16 1026 30.3 855 25.25 1.7 35.1 50 -7.5 18.5 0 0
01:17 1026 30.3 855 25.25 1.9 35.5 49 -7.6 18.3 0 0
01:18 1026 30.3 855 25.25 2.1 35.7 49 -7.5 18.4 0 0
01:19 1026 30.3 855 25.25 2.1 35.7 49 -7.5 18.5 0 0
01:20 1026 30.3 855 25.25 2 35.5 49 -7.6 18.4 0 0
01:21 1026 30.3 855 25.25 2 35.6 49 -7.6 18.3 0 0
01:22 1026 30.3 855 25.25 2 35.6 49 -7.7 18.1 0 0
01:23 1026 30.3 855 25.25 2.1 35.8 48 -7.7 18.2 0 0
01:24 1026 30.3 855 25.25 2.1 35.8 48 -7.8 18 0 0
01:25 1026 30.3 855 25.25 2.2 36 48 -7.7 18.1 0 0
01:26 1026 30.3 855 25.25 2.3 36.1 48 -7.7 18.1 0 0
01:27 1026 30.3 855 25.25 2.3 36.1 48 -7.7 18.2 0 0
01:28 1026 30.3 855 25.25 2.3 36.1 48 -7.7 18.1 0 0
01:29 1026 30.3 855 25.25 2.3 36.1 47 -7.8 17.9 0 0
01:30 1026 30.3 855 25.25 2.3 36.2 47 -7.9 17.9 0 0
01:31 1026 30.3 855 25.25 2.4 36.3 47 -7.9 17.9 0 0
01:32 1026 30.3 855 25.25 2.5 36.4 46 -8 17.7 0 0
01:33 1026 30.3 855 25.25 2.6 36.6 46 -7.9 17.7 0 0
01:34 1026 30.3 855 25.25 2.6 36.6 46 -7.9 17.9 0 0
01:35 1026 30.3 855 25.25 2.6 36.7 46 -7.9 17.7 0 0
01:36 1026 30.3 855 25.25 2.7 36.9 45 -8 17.5 0 0
01:37 1026 30.3 855 25.25 2.8 37 45 -8 17.7 0 0
01:38 1026 30.3 855 25.25 2.8 37.1 45 -8 17.5 0 0
01:39 1026 30.3 855 25.25 2.8 37.1 45 -8.1 17.5 0 0
01:40 1026 30.3 855 25.25 2.9 37.2 44 -8.2 17.2 0 0
01:41 1026 30.3 855 25.25 3 37.3 44 -8.1 17.4 0 0
01:42 1026 30.3 855 25.25 2.9 37.2 44 -8.1 17.4 0 0
01:43 1026 30.3 855 25.25 2.9 37.2 44 -8.2 17.3 0 0
01:44 1026 30.3 855 25.25 2.9 37.2 44 -8.2 17.3 0 0
01:45 1026 30.3 855 25.25 2.8 37.1 44 -8.2 17.2 0 0
01:46 1026 30.3 855 25.25 2.8 37.1 44 -8.3 17 0 0
01:47 1026 30.3 855 25.25 2.9 37.2 43 -8.3 17 0 0
01:48 1026 30.3 855 25.25 3 37.3 43 -8.4 16.9 0 0
01:49 1026 30.3 855 25.25 3 37.4 43 -8.4 17 0 0
01:50 1026 30.3 855 25.25 2.9 37.1 43 -8.4 16.8 0 0
01:51 1026 30.3 855 25.25 2.8 37.1 43 -8.4 16.9 0 0
01:52 1026 30.3 855 25.25 2.8 37.1 44 -8.3 17.1 0 0
01:53 1026 30.3 855 25.25 2.8 37 44 -8.4 16.9 0 0
01:54 1026 30.3 855 25.25 2.8 37.1 44 -8.4 16.9 0 0
01:55 1026 30.3 855 25.25 2.8 37.1 43 -8.5 16.7 0 0
01:56 1026 30.3 855 25.25 2.9 37.3 43 -8.6 16.6 0 0
01:57 1026 30.3 855 25.25 3.1 37.5 42 -8.5 16.6 0 0
01:58 1026 30.3 855 25.25 3 37.4 43 -8.4 16.9 0 0
01:59 1026 30.3 855 25.25 2.9 37.2 43 -8.4 16.9 0 0
02:00 1026 30.3 855 25.25 2.8 37 47 -7.5 18.5 0 0
02:01 1026 30.3 855 25.25 2.4 36.3 47 -7.7 18.2 0 0
02:02 1026 30.3 855 25.25 1.9 35.3 49 -7.7 18.2 0 0
02:03 1026 30.3 855 25.25 1.5 34.7 51 -7.5 18.4 0 0
02:04 1026 30.3 855 25.25 1.2 34.1 54 -7.2 19 0 0
02:05 1026 30.3 855 25.25 0.7 33.3 55 -7.3 18.9 0 0
02:06 1026 30.3 855 25.25 0.4 32.8 55 -7.6 18.4 0 0
02:07 1026 30.3 855 25.25 0.2 32.4 56 -7.6 18.2 0 0
02:08 1026 30.3 855 25.25 0.1 32.3 55 -7.9 17.8 0 0
02:09 1026 30.3 855 25.25 0.2 32.4 55 -7.8 17.9 0 0
02:10 1026 30.3 855 25.25 0.2 32.4 55 -7.9 17.8 0 0
02:11 1026 30.3 856 25.28 0.3 32.5 54 -8 17.5 0 0
02:12 1026 30.3 856 25.28 0.4 32.8 53 -8 17.6 0 0
02:13 1026 30.3 856 25.28 0.6 33.1 53 -8 17.6 0 0
02:14 1026 30.3 856 25.28 0.7 33.2 53 -7.8 17.9 0 0
02:15 1026 30.3 856 25.28 0.6 33.2 55 -7.5 18.6 0 0
02:16 1026 30.3 856 25.28 0.3 32.6 56 -7.3 18.8 0 0
02:17 1026 30.3 856 25.28 -0.1 31.9 58 -7.4 18.7 0 0
02:18 1026 30.3 856 25.28 -0.4 31.3 58 -7.7 18.2 0 0
02:19 1026 30.3 856 25.28 -0.3 31.4 56 -8 17.6 0 0
02:20 1026 30.3 856 25.28 0.1 32.1 55 -8 17.6 0 0
02:21 1026 30.3 856 25.28 0.4 32.7 54 -7.9 17.8 0 0
02:22 1026 30.3 856 25.28 0.5 32.9 53 -8.1 17.5 0 0
02:23 1026 30.3 856 25.28 0.5 33 54 -7.7 18.1 0 0
02:24 1026 30.3 856 25.28 0.3 32.5 55 -7.7 18.2 0 0
02:25 1026 30.3 856 25.28 0 32.1 55 -7.9 17.9 0 0
02:26 1026 30.3 856 25.28 0.1 32.1 54 -8 17.5 0 0
02:27 1026 30.3 856 25.28 0.3 32.5 53 -8.2 17.3 0 0
02:28 1026 30.3 856 25.28 0.6 33 52 -8.2 17.2 0 0
02:29 1026 30.3 856 25.28 0.7 33.3 51 -8.3 17 0 0
02:30 1026 30.3 856 25.28 1 33.7 50 -8.3 17.1 0 0
02:31 1026 30.3 856 25.28 1 33.9 51 -7.9 17.8 0 0
02:32 1026 30.3 856 25.28 0.9 33.6 52 -7.9 17.8 0 0
02:33 1026 30.3 856 25.28 0.7 33.2 52 -8 17.7 0 0
02:34 1026 30.3 856 25.28 0.6 33.2 51 -8.4 16.8 0 0
02:35 1026 30.3 856 25.28 0.9 33.6 50 -8.4 16.8 0 0
02:36 1026 30.3 856 25.28 1 33.8 50 -8.4 16.9 0 0
02:37 1026 30.3 856 25.28 1 33.9 49 -8.5 16.8 0 0
02:38 1026 30.3 856 25.28 1.1 34 49 -8.5 16.7 0 0
02:39 1026 30.3 856 25.28 1.1 34 50 -8.2 17.3 0 0
02:40 1026 30.3 856 25.28 0.9 33.7 51 -8.2 17.2 0 0
02:41 1026 30.3 856 25.28 0.8 33.4 51 -8.2 17.3 0 0
02:42 1026 30.3 856 25.28 0.7 33.3 50 -8.6 16.6 0 0
02:43 1026 30.3 856 25.28 1 33.8 49 -8.5 16.7 0 0
02:44 1026 30.3 856 25.28 1.2 34.1 49 -8.5 16.8 0 0
02:45 1026 30.3 856 25.28 1.2 34.1 49 -8.5 16.8 0 0
02:46 1027 30.33 856 25.28 1.2 34.1 49 -8.5 16.8 0 0
02:47 1027 30.33 856 25.28 1.2 34.1 50 -8.2 17.3 0 0
02:48 1027 30.33 856 25.28 1 33.9 51 -7.9 17.8 0 0
02:49 1027 30.33 856 25.28 0.8 33.5 52 -7.9 17.9 0 0
02:50 1027 30.33 856 25.28 0.7 33.2 51 -8.4 16.9 0 0
02:51 1027 30.33 856 25.28 0.8 33.4 51 -8.3 17.1 0 0
02:52 1027 30.33 856 25.28 0.8 33.4 51 -8.1 17.3 0 0
02:53 1027 30.33 856 25.28 0.7 33.2 52 -8.1 17.5 0 0
02:54 1027 30.33 856 25.28 0.5 32.9 52 -8.3 17 0 0
02:55 1027 30.33 856 25.28 0.5 32.9 52 -8.3 17 0 0
02:56 1027 30.33 856 25.28 0.5 32.9 51 -8.4 16.9 0 0
02:57 1027 30.33 856 25.28 0.5 33 51 -8.4 16.9 0 0
02:58 1027 30.33 856 25.28 0.5 33 51 -8.4 17 0 0
02:59 1027 30.33 856 25.28 0.5 32.8 52 -8.2 17.2 0 0
03:00 1027 30.33 856 25.28 0.3 32.6 53 -8.1 17.4 0 0
03:01 1027 30.33 856 25.28 0.2 32.4 53 -8.3 17.1 0 0
03:02 1027 30.33 856 25.28 0.2 32.4 53 -8.4 16.9 0 0
03:03 1027 30.33 856 25.28 0.3 32.5 52 -8.4 16.9 0 0
03:04 1027 30.33 856 25.28 0.4 32.6 52 -8.4 16.9 0 0
03:05 1027 30.33 856 25.28 0.5 32.8 52 -8.4 16.9 0 0
03:06 1027 30.33 856 25.28 0.4 32.8 53 -8.1 17.3 0 0
03:07 1027 30.33 856 25.28 0.3 32.6 53 -8.1 17.4 0 0
03:08 1027 30.33 856 25.28 0.2 32.4 53 -8.2 17.2 0 0
03:09 1027 30.33 856 25.28 0.2 32.3 53 -8.2 17.2 0 0
03:10 1027 30.33 856 25.28 0.2 32.4 53 -8.2 17.2 0 0
03:11 1027 30.33 856 25.28 0.3 32.5 52 -8.5 16.7 0 0
03:12 1027 30.33 856 25.28 0.5 32.8 52 -8.3 17.1 0 0
03:13 1027 30.33 856 25.28 0.5 32.8 52 -8.2 17.2 0 0
03:14 1027 30.33 856 25.28 0.4 32.6 53 -8.1 17.5 0 0
03:15 1027 30.33 856 25.28 0.1 32.2 55 -7.8 18 0 0
03:16 1027 30.33 856 25.28 -0.2 31.6 56 -8 17.6 0 0
03:17 1027 30.33 856 25.28 -0.4 31.3 57 -7.8 17.9 0 0
03:18 1027 30.33 856 25.28 -0.5 31 58 -7.8 17.9 0 0
03:19 1027 30.33 856 25.28 -0.7 30.8 59 -7.8 18 0 0
03:20 1027 30.33 856 25.28 -0.9 30.4 60 -7.7 18.1 0 0
03:21 1027 30.33 856 25.28 -1.1 30 61 -7.7 18.2 0 0
03:22 1027 30.33 856 25.28 -1.4 29.4 62 -7.8 18 0 0
03:23 1027 30.33 856 25.28 -1.6 29.1 63 -7.8 17.9 0 0
03:24 1027 30.33 856 25.28 -1.6 29.1 63 -7.9 17.8 0 0
03:25 1027 30.33 856 25.28 -1.5 29.4 61 -7.9 17.7 0 0
03:26 1027 30.33 856 25.28 -1.3 29.7 61 -7.8 18 0 0
03:27 1027 30.33 856 25.28 -1.2 29.9 61 -7.7 18.1 0 0
03:28 1027 30.33 856 25.28 -1.2 29.9 62 -7.6 18.3 0 0
03:29 1027 30.33 856 25.28 -1.3 29.7 62 -7.6 18.3 0 0
03:30 1027 30.33 856 25.28 -1.3 29.6 62 -7.7 18.1 0 0
03:31 1027 30.33 856 25.28 -1.2 29.8 61 -7.8 17.9 0 0
03:32 1027 30.33 856 25.28 -1 30.1 60 -7.8 17.9 0 0
03:33 1027 30.33 856 25.28 -0.9 30.4 60 -7.7 18.1 0 0
03:34 1027 30.33 856 25.28 -0.9 30.4 60 -7.6 18.3 0 0
03:35 1027 30.33 856 25.28 -0.9 30.3 61 -7.5 18.4 0 0
03:36 1027 30.33 856 25.28 -1 30.2 62 -7.4 18.7 0 0
03:37 1027 30.33 856 25.28 -1.2 29.9 62 -7.5 18.5 0 0
03:38 1027 30.33 856 25.28 -1.2 29.9 62 -7.4 18.6 0 0
03:39 1027 30.33 856 25.28 -1.2 29.8 63 -7.4 18.8 0 0
03:40 1027 30.33 856 25.28 -1.3 29.6 63 -7.4 18.7 0 0
03:41 1027 30.33 856 25.28 -1.4 29.5 64 -7.4 18.7 0 0
03:42 1027 30.33 856 25.28 -1.4 29.4 64 -7.4 18.7 0 0
03:43 1027 30.33 856 25.28 -1.5 29.3 64 -7.4 18.8 0 0
03:44 1027 30.33 856 25.28 -1.6 29.1 65 -7.3 18.9 0 0
03:45 1027 30.33 856 25.28 -1.8 28.8 66 -7.4 18.7 0 0
03:46 1027 30.33 856 25.28 -2 28.3 66 -7.6 18.3 0 0
03:47 1027 30.33 856 25.28 -2.3 27.9 67 -7.6 18.2 0 0
03:48 1027 30.33 856 25.28 -2.4 27.6 67 -7.7 18.1 0 0
03:49 1027 30.33 856 25.28 -2.5 27.5 68 -7.6 18.3 0 0
03:50 1027 30.33 856 25.28 -2.6 27.3 69 -7.5 18.4 0 0
03:51 1027 30.33 856 25.28 -2.5 27.5 68 -7.6 18.4 0 0
03:52 1027 30.33 856 25.28 -2.4 27.6 68 -7.6 18.3 0 0
03:53 1027 30.33 856 25.28 -2.3 27.8 66 -7.8 17.9 0 0
03:54 1027 30.33 856 25.28 -2 28.4 64 -7.9 17.8 0 0
03:55 1027 30.33 856 25.28 -1.7 28.9 62 -8 17.6 0 0
03:56 1027 30.33 856 25.28 -1.5 29.3 62 -7.9 17.7 0 0
03:57 1027 30.33 856 25.28 -1.4 29.5 61 -7.9 17.7 0 0
03:58 1027 30.33 856 25.28 -1.4 29.4 61 -8.1 17.4 0 0
03:59 1027 30.33 856 25.28 -1.4 29.5 60 -8.1 17.3 0 0
04:00 1027 30.33 856 25.28 -1.5 29.3 60 -8.2 17.2 0 0
04:01 1027 30.33 856 25.28 -1.6 29.1 60 -8.4 16.9 0 0
04:02 1027 30.33 856 25.28 -1.8 28.8 61 -8.4 16.9 0 0
04:03 1027 30.33 856 25.28 -1.9 28.6 61 -8.4 16.9 0 0
04:04 1027 30.33 856 25.28 -1.8 28.7 61 -8.4 16.8 0 0
04:05 1027 30.33 856 25.28 -1.8 28.7 60 -8.6 16.5 0 0
04:06 1027 30.33 856 25.28 -1.8 28.8 60 -8.6 16.4 0 0
04:07 1027 30.33 856 25.28 -1.9 28.6 60 -8.7 16.3 0 0
04:08 1027 30.33 856 25.28 -2 28.4 60 -8.9 16 0 0
04:09 1027 30.33 856 25.28 -2.2 28.1 60 -8.9 16 0 0
04:10 1027 30.33 856 25.28 -2.2 28.1 60 -8.9 16 0 0
04:11 1027 30.33 856 25.28 -2.3 27.9 61 -8.9 16.1 0 0
04:12 1027 30.33 856 25.28 -2.4 27.8 62 -8.7 16.3 0 0
04:13 1027 30.33 856 25.28 -2.3 27.8 62 -8.6 16.5 0 0
04:14 1027 30.33 856 25.28 -2.3 27.9 62 -8.6 16.6 0 0
04:15 1027 30.33 856 25.28 -2.3 27.9 62 -8.5 16.6 0 0
04:16 1027 30.33 856 25.28 -2.3 27.9 62 -8.6 16.6 0 0
04:17 1027 30.33 856 25.28 -2.2 28 62 -8.5 16.7 0 0
04:18 1027 30.33 856 25.28 -2.2 28.1 62 -8.5 16.7 0 0
04:19 1027 30.33 856 25.28 -2.2 28.1 62 -8.5 16.7 0 0
04:20 1027 30.33 856 25.28 -2.2 28.1 62 -8.4 16.8 0 0
04:21 1027 30.33 856 25.28 -2.2 28 62 -8.6 16.6 0 0
04:22 1027 30.33 856 25.28 -2.3 27.9 62 -8.5 16.7 0 0
04:23 1027 30.33 856 25.28 -2.4 27.7 63 -8.5 16.6 0 0
04:24 1027 30.33 856 25.28 -2.4 27.6 63 -8.5 16.6 0 0
04:25 1027 30.33 856 25.28 -2.4 27.8 63 -8.4 16.9 0 0
04:26 1027 30.33 856 25.28 -2.2 28.1 63 -8.4 16.9 0 0
04:27 1027 30.33 856 25.28 -2.1 28.1 62 -8.4 16.9 0 0
04:28 1027 30.33 856 25.28 -2.1 28.2 62 -8.4 16.9 0 0
04:29 1027 30.33 856 25.28 -2 28.4 62 -8.3 17 0 0
04:30 1027 30.33 856 25.28 -1.6 29.1 60 -8.4 16.8 0 0
04:31 1027 30.33 856 25.28 -1.3 29.7 58 -8.5 16.7 0 0
04:32 1027 30.33 856 25.28 -1 30.2 57 -8.5 16.7 0 0
04:33 1027 30.33 856 25.28 -0.8 30.6 56 -8.5 16.7 0 0
04:34 1027 30.33 856 25.28 -0.7 30.8 56 -8.3 17 0 0
04:35 1027 30.33 856 25.28 -0.8 30.6 58 -8 17.5 0 0
04:36 1027 30.33 856 25.28 -1 30.2 59 -8.1 17.5 0 0
04:37 1027 30.33 856 25.28 -1.3 29.6 60 -8.2 17.2 0 0
04:38 1027 30.33 856 25.28 -1.4 29.6 59 -8.3 17 0 0
04:39 1027 30.33 856 25.28 -1.3 29.6 59 -8.2 17.2 0 0
04:40 1027 30.33 856 25.28 -1.4 29.5 60 -8.2 17.2 0 0
04:41 1027 30.33 856 25.28 -1.5 29.2 60 -8.3 17.1 0 0
04:42 1027 30.33 856 25.28 -1.7 29 61 -8.2 17.2 0 0
04:43 1027 30.33 856 25.28 -1.9 28.5 63 -8.1 17.4 0 0
04:44 1027 30.33 856 25.28 -2.1 28.2 64 -8.1 17.4 0 0
04:45 1027 30.33 856 25.28 -2.3 27.9 64 -8.2 17.2 0 0
04:46 1027 30.33 856 25.28 -2.3 27.8 64 -8.3 17.1 0 0
04:47 1027 30.33 856 25.28 -2.4 27.7 64 -8.3 17 0 0
04:48 1027 30.33 856 25.28 -2.4 27.6 64 -8.3 17.1 0 0
04:49 1027 30.33 856 25.28 -2.4 27.6 64 -8.2 17.2 0 0
04:50 1027 30.33 856 25.28 -2.4 27.7 64 -8.3 17 0 0
04:51 1027 30.33 856 25.28 -2.3 27.8 64 -8.3 17.1 0 0
04:52 1027 30.33 856 25.28 -2.2 28.1 63 -8.3 17 0 0
04:53 1027 30.33 856 25.28 -2.1 28.2 63 -8.2 17.3 0 0
04:54 1027 30.33 856 25.28 -2.3 27.9 64 -8.1 17.4 0 0
04:55 1027 30.33 856 25.28 -2.4 27.7 65 -8.1 17.5 0 0
04:56 1027 30.33 856 25.28 -2.6 27.4 66 -8 17.7 0 0
04:57 1027 30.33 856 25.28 -2.7 27.1 68 -7.9 17.8 0 0
04:58 1027 30.33 856 25.28 -2.8 26.9 68 -7.8 17.9 0 0
04:59 1027 30.33 856 25.28 -2.9 26.7 69 -7.9 17.8 0 0
05:00 1027 30.33 856 25.28 -3 26.7 69 -7.9 17.8 0 0
05:01 1027 30.33 856 25.28 -3 26.5 69 -7.9 17.8 0 0
05:02 1027 30.33 856 25.28 -3.1 26.4 69 -8 17.6 0 0
05:03 1027 30.33 856 25.28 -3.1 26.4 69 -8.1 17.5 0 0
05:04 1027 30.33 856 25.28 -3 26.5 68 -8.1 17.4 0 0
05:05 1027 30.33 856 25.28 -3.1 26.5 68 -8.2 17.3 0 0
05:06 1027 30.33 856 25.28 -3.1 26.4 67 -8.3 17 0 0
05:07 1027 30.33 856 25.28 -3.1 26.5 67 -8.4 16.9 0 0
05:08 1027 30.33 856 25.28 -3 26.6 66 -8.4 16.8 0 0
05:09 1027 30.33 856 25.28 -2.9 26.8 66 -8.4 16.9 0 0
05:10 1027 30.33 856 25.28 -2.8 27 66 -8.4 17 0 0
05:11 1027 30.33 856 25.28 -2.7 27.1 65 -8.4 17 0 0
05:12 1027 30.33 856 25.28 -2.5 27.5 65 -8.3 17 0 0
05:13 1027 30.33 856 25.28 -2.4 27.6 64 -8.3 17 0 0
05:14 1027 30.33 856 25.28 -2.3 27.8 63 -8.3 17 0 0
05:15 1027 30.33 856 25.28 -2.2 28 63 -8.3 17 0 0
05:16 1027 30.33 856 25.28 -2.2 28 63 -8.4 16.9 0 0
05:17 1027 30.33 856 25.28 -2.1 28.3 62 -8.4 16.9 0 0
05:18 1027 30.33 856 25.28 -1.9 28.6 61 -8.4 16.8 0 0
05:19 1027 30.33 856 25.28 -1.8 28.7 60 -8.5 16.7 0 0
05:20 1027 30.33 856 25.28 -1.8 28.8 60 -8.5 16.8 0 0
05:21 1027 30.33 857 25.31 -1.8 28.7 61 -8.4 16.8 0 0
05:22 1027 30.33 856 25.28 -2 28.4 62 -8.4 16.9 0 0
05:23 1027 30.33 857 25.31 -2.1 28.2 63 -8.3 17 0 0
05:24 1027 30.33 857 25.31 -2.2 28 63 -8.3 17.1 0 0
05:25 1027 30.33 857 25.31 -2.2 28 63 -8.3 17 0 0
05:26 1027 30.33 857 25.31 -2.2 28 63 -8.4 16.9 0 0
05:27 1027 30.33 857 25.31 -2.3 27.9 62 -8.5 16.7 0 0
05:28 1027 30.33 857 25.31 -2.3 27.8 63 -8.5 16.8 0 0
05:29 1027 30.33 857 25.31 -2.2 28 63 -8.4 16.8 0 0
05:30 1027 30.33 857 25.31 -2.1 28.3 62 -8.4 17 0 0
05:31 1027 30.33 857 25.31 -2 28.5 62 -8.3 17.1 0 0
05:32 1027 30.33 857 25.31 -1.9 28.6 62 -8.2 17.2 0 0
05:33 1027 30.33 857 25.31 -1.8 28.8 62 -8.1 17.4 0 0
05:34 1027 30.33 857 25.31 -1.8 28.7 62 -8.1 17.3 0 0
05:35 1027 30.33 857 25.31 -1.9 28.6 63 -8.1 17.4 0 0
05:36 1027 30.33 857 25.31 -1.8 28.7 62 -8.2 17.3 0 0
05:37 1027 30.33 857 25.31 -1.9 28.7 62 -8.1 17.4 0 0
05:38 1027 30.33 857 25.31 -2 28.4 64 -8 17.6 0 0
05:39 1027 30.33 857 25.31 -2.1 28.2 64 -8 17.5 0 0
05:40 1027 30.33 857 25.31 -2 28.3 63 -8.1 17.4 0 0
05:41 1027 30.33 857 25.31 -1.9 28.6 63 -8.1 17.5 0 0
05:42 1027 30.33 857 25.31 -1.8 28.8 62 -8.2 17.3 0 0
05:43 1027 30.33 857 25.31 -1.6 29 61 -8.2 17.3 0 0
05:44 1027 30.33 857 25.31 -1.5 29.3 61 -8.1 17.4 0 0
05:45 1027 30.33 857 25.31 -1.4 29.5 60 -8.2 17.3 0 0
05:46 1027 30.33 857 25.31 -1.2 29.8 59 -8.2 17.3 0 0
05:47 1027 30.33 857 25.31 -1 30.2 58 -8.1 17.4 0 0
05:48 1027 30.33 857 25.31 -0.8 30.5 58 -8.1 17.5 0 0
05:49 1027 30.33 857 25.31 -0.8 30.6 58 -8.1 17.5 0 0
05:50 1027 30.33 857 25.31 -0.7 30.8 58 -7.9 17.8 0 0
05:51 1028 30.36 857 25.31 -0.8 30.6 58 -8 17.6 0 0
05:52 1027 30.33 857 25.31 -0.8 30.6 58 -7.9 17.7 0 0
05:53 1028 30.36 857 25.31 -0.8 30.6 58 -8.1 17.5 0 0
05:54 1028 30.36 857 25.31 -0.7 30.8 58 -7.9 17.7 0 0
05:55 1028 30.36 857 25.31 -0.7 30.7 58 -8.1 17.5 0 0
05:56 1028 30.36 857 25.31 -0.6 30.8 57 -8.1 17.4 0 0
05:57 1028 30.36 857 25.31 -0.5 31 57 -8 17.7 0 0
05:58 1028 30.36 857 25.31 -0.5 31.1 57 -8.1 17.5 0 0
05:59 1028 30.36 857 25.31 -0.4 31.3 56 -8.1 17.5 0 0
06:00 1028 30.36 857 25.31 -0.3 31.5 56 -8 17.7 0 0
06:01 1028 30.36 857 25.31 -0.3 31.5 56 -8 17.6 0 0
06:02 1028 30.36 857 25.31 -0.2 31.6 56 -8 17.6 0 0
06:03 1028 30.36 857 25.31 -0.2 31.6 56 -8 17.7 0 0
06:04 1028 30.36 857 25.31 -0.2 31.7 56 -7.8 17.9 0 0
06:05 1028 30.36 857 25.31 -0.1 31.8 56 -7.8 18 0 0
06:06 1028 30.36 857 25.31 -0.1 31.8 56 -7.8 17.9 0 0
06:07 1028 30.36 857 25.31 -0.1 31.9 57 -7.7 18.2 0 0
06:08 1028 30.36 857 25.31 -0.1 31.8 57 -7.6 18.3 0 0
06:09 1028 30.36 857 25.31 -0.1 31.9 57 -7.6 18.3 0 0
06:10 1028 30.36 857 25.31 -0 32 56 -7.7 18.1 0 0
06:11 1028 30.36 857 25.31 0.1 32.1 56 -7.7 18.2 0 0
06:12 1028 30.36 857 25.31 0.2 32.3 56 -7.7 18.1 0 0
06:13 1028 30.36 857 25.31 0.2 32.4 55 -7.7 18.1 0 0
06:14 1028 30.36 857 25.31 0.3 32.6 55 -7.7 18.1 0 0
06:15 1028 30.36 857 25.31 0.4 32.7 55 -7.7 18.2 0 0
06:16 1028 30.36 857 25.31 0.4 32.7 55 -7.6 18.2 0 0
06:17 1028 30.36 857 25.31 0.4 32.7 55 -7.5 18.4 0 0
06:18 1028 30.36 857 25.31 0.3 32.6 55 -7.6 18.4 0 0
06:19 1028 30.36 857 25.31 0.4 32.6 56 -7.4 18.7 0 0
06:20 1028 30.36 857 25.31 0.3 32.5 56 -7.4 18.7 0 0
06:21 1028 30.36 857 25.31 0.2 32.4 57 -7.4 18.7 0 0
06:22 1028 30.36 857 25.31 0.2 32.3 57 -7.4 18.7 0 0
06:23 1028 30.36 857 25.31 0.2 32.4 57 -7.5 18.6 0 0
06:24 1028 30.36 857 25.31 0.2 32.4 56 -7.6 18.4 0 0
06:25 1028 30.36 857 25.31 0.2 32.4 56 -7.6 18.3 0 0
06:26 1028 30.36 857 25.31 0.3 32.5 56 -7.6 18.3 0 0
06:27 1028 30.36 857 25.31 0.3 32.5 56 -7.5 18.5 0 0
06:28 1028 30.36 857 25.31 0.3 32.5 56 -7.6 18.3 0 0
06:29 1028 30.36 857 25.31 0.2 32.4 56 -7.7 18.2 0 0
06:30 1028 30.36 857 25.31 0.2 32.4 56 -7.6 18.3 0 0
06:31 1028 30.36 857 25.31 0.2 32.4 55 -7.7 18.1 0 0
06:32 1028 30.36 857 25.31 0.2 32.4 54 -8 17.6 0 0
06:33 1028 30.36 857 25.31 0.4 32.6 53 -8.1 17.5 0 0
06:34 1028 30.36 857 25.31 0.4 32.7 54 -7.9 17.7 0 0
06:35 1028 30.36 857 25.31 0.4 32.7 54 -7.8 17.9 0 0
06:36 1028 30.36 857 25.31 0.3 32.6 54 -7.9 17.7 0 0
06:37 1028 30.36 857 25.31 0.3 32.6 53 -8.1 17.3 0 0
06:38 1028 30.36 857 25.31 0.4 32.7 54 -7.9 17.8 0 0
06:39 1028 30.36 857 25.31 0.3 32.6 54 -7.8 17.9 0 0
06:40 1028 30.36 857 25.31 0.3 32.5 55 -7.8 17.9 0 0
06:41 1028 30.36 857 25.31 0.2 32.3 55 -7.7 18.1 0 0
06:42 1028 30.36 857 25.31 0.1 32.2 56 -7.7 18.1 0 0
06:43 1028 30.36 857 25.31 0.1 32.1 57 -7.5 18.6 0 0
06:44 1028 30.36 857 25.31 -0.1 31.9 58 -7.4 18.7 0 0
06:45 1028 30.36 857 25.31 -0.2 31.7 58 -7.5 18.4 0 0
06:46 1028 30.36 857 25.31 -0.2 31.6 58 -7.5 18.5 0 0
06:47 1028 30.36 857 25.31 -0.3 31.5 58 -7.7 18.2 0 0
06:48 1028 30.36 857 25.31 -0.3 31.5 58 -7.6 18.4 0 0
06:49 1028 30.36 857 25.31 -0.3 31.5 57 -7.7 18.1 0 0
06:50 1028 30.36 857 25.31 -0.3 31.5 58 -7.5 18.4 0 0
06:51 1028 30.36 857 25.31 -0.3 31.4 58 -7.7 18.2 0 0
06:52 1028 30.36 857 25.31 -0.4 31.3 58 -7.7 18.1 0 0
06:53 1028 30.36 857 25.31 -0.4 31.2 58 -7.8 18 0 0
06:54 1028 30.36 857 25.31 -0.4 31.3 57 -7.8 17.9 0 0
06:55 1028 30.36 857 25.31 -0.4 31.4 57 -7.8 17.9 0 0
06:56 1028 30.36 857 25.31 -0.3 31.5 57 -7.7 18.1 0 0
06:57 1028 30.36 857 25.31 -0.2 31.6 57 -7.6 18.2 0 0
06:58 1028 30.36 857 25.31 -0.2 31.7 58 -7.5 18.5 0 0
06:59 1028 30.36 857 25.31 -0.1 31.8 57 -7.5 18.4 0 0
07:00 1028 30.36 857 25.31 -0.1 31.9 57 -7.6 18.3 0 0
07:01 1028 30.36 857 25.31 -0.1 31.9 58 -7.4 18.7 0 0
07:02 1028 30.36 857 25.31 -0.1 31.8 58 -7.5 18.5 0 0
07:03 1028 30.36 857 25.31 -0.1 31.8 58 -7.4 18.7 0 0
07:04 1028 30.36 857 25.31 -0.2 31.6 58 -7.6 18.3 0 0
07:05 1028 30.36 858 25.34 -0.3 31.5 58 -7.7 18.2 0 0
07:06 1028 30.36 857 25.31 -0.4 31.3 57 -8 17.7 0 0
07:07 1028 30.36 857 25.31 -0.4 31.2 56 -8.1 17.4 0 0
07:08 1028 30.36 857 25.31 -0.5 31 57 -8.1 17.4 0 0
07:09 1028 30.36 857 25.31 -0.7 30.8 57 -8.1 17.4 0 0
07:10 1028 30.36 857 25.31 -0.9 30.3 58 -8.2 17.3 0 0
07:11 1028 30.36 857 25.31 -1 30.1 58 -8.3 17.1 0 0
07:12 1028 30.36 858 25.34 -1.1 30 58 -8.3 17 0 0
07:13 1028 30.36 858 25.34 -1.2 29.8 59 -8.2 17.2 0 0
07:14 1028 30.36 858 25.34 -1.4 29.4 60 -8.3 17.1 0 0
07:15 1028 30.36 858 25.34 -1.6 29.2 60 -8.3 17.1 0 0
07:16 1028 30.36 858 25.34 -1.7 29 61 -8.3 17.1 0 0
07:17 1028 30.36 858 25.34 -1.8 28.8 61 -8.3 17.1 0 0
07:18 1028 30.36 858 25.34 -2 28.4 63 -8.2 17.2 0 0
07:19 1028 30.36 858 25.34 -2.2 28 64 -8.2 17.2 0 0
07:20 1028 30.36 858 25.34 -2.5 27.6 65 -8.2 17.2 0 0
07:21 1028 30.36 858 25.34 -2.6 27.3 65 -8.3 17.1 0 0
07:22 1028 30.36 858 25.34 -2.7 27.1 66 -8.3 17.1 0 0
07:23 1028 30.36 858 25.34 -2.8 26.9 66 -8.3 17.1 0 0
07:24 1028 30.36 858 25.34 -3 26.5 68 -8.1 17.4 0 0
07:25 1028 30.36 858 25.34 -3.1 26.4 69 -7.9 17.7 0 0
07:26 1028 30.36 858 25.34 -3 26.6 69 -7.9 17.8 0 0
07:27 1028 30.36 858 25.34 -2.9 26.7 70 -7.7 18.2 0 0
07:28 1028 30.36 858 25.34 -2.8 26.9 68 -8 17.6 0 0
07:29 1029 30.39 858 25.34 -2.5 27.5 66 -8 17.5 0 0
07:30 1029 30.39 858 25.34 -2.1 28.3 64 -8 17.6 0 0
07:31 1029 30.39 858 25.34 -1.8 28.8 62 -8.1 17.5 0 0
07:32 1029 30.39 858 25.34 -1.5 29.2 61 -8.1 17.5 0 0
07:33 1029 30.39 858 25.34 -1.3 29.6 61 -8 17.6 0 0
07:34 1029 30.39 858 25.34 -1.2 29.9 60 -8 17.7 0 0
07:35 1029 30.39 858 25.34 -1.1 30 60 -7.8 17.9 0 0
07:36 1029 30.39 858 25.34 -1.1 30 62 -7.6 18.4 0 0
07:37 1029 30.39 858 25.34 -1.1 30.1 61 -7.8 18 0 0
07:38 1029 30.39 858 25.34 -1 30.2 61 -7.7 18.2 0 0
07:39 1029 30.39 858 25.34 -1 30.3 60 -7.8 18 0 0
07:40 1029 30.39 858 25.34 -0.8 30.6 59 -7.8 18 0 0
07:41 1029 30.39 858 25.34 -0.6 30.8 59 -7.7 18.1 0 0
07:42 1029 30.39 858 25.34 -0.5 31.1 58 -7.7 18.1 0 0
07:43 1029 30.39 858 25.34 -0.4 31.3 58 -7.6 18.4 0 0
07:44 1029 30.39 858 25.34 -0.2 31.6 59 -7.4 18.7 0 0
07:45 1029 30.39 858 25.34 -0.1 31.9 58 -7.4 18.6 0 0
07:46 1029 30.39 858 25.34 0.1 32.1 57 -7.6 18.4 0 0
07:47 1029 30.39 858 25.34 0.3 32.5 56 -7.5 18.6 0 0
07:48 1029 30.39 858 25.34 0.4 32.7 55 -7.5 18.5 0 0
07:49 1029 30.39 858 25.34 0.6 33 54 -7.6 18.3 0 0
07:50 1029 30.39 858 25.34 0.7 33.3 54 -7.6 18.3 0 0
07:51 1029 30.39 858 25.34 0.7 33.3 54 -7.6 18.3 0 0
07:52 1029 30.39 858 25.34 0.7 33.3 54 -7.5 18.5 0 0
07:53 1029 30.39 858 25.34 0.7 33.2 55 -7.4 18.6 0 0
07:54 1029 30.39 858 25.34 0.6 33.2 55 -7.4 18.7 0 0
07:55 1029 30.39 858 25.34 0.7 33.2 54 -7.5 18.5 0 0
07:56 1029 30.39 858 25.34 0.7 33.3 54 -7.5 18.6 0 0
07:57 1029 30.39 858 25.34 0.7 33.3 54 -7.5 18.5 0 0
07:58 1029 30.39 858 25.34 0.7 33.2 54 -7.5 18.4 0 0
07:59 1029 30.39 858 25.34 0.7 33.2 54 -7.5 18.5 0 0
08:00 1029 30.39 858 25.34 0.6 33.1 55 -7.4 18.6 0 0
08:01 1029 30.39 858 25.34 0.5 33 55 -7.5 18.5 0 0
08:02 1029 30.39 858 25.34 0.5 33 56 -7.3 18.9 0 0
08:03 1029 30.39 858 25.34 0.6 33 56 -7.3 18.9 0 0
08:04 1029 30.39 858 25.34 0.6 33.1 56 -7.2 19.1 0 0
08:05 1029 30.39 858 25.34 0.6 33.1 56 -7.3 18.9 0 0
08:06 1029 30.39 858 25.34 0.6 33.2 56 -7.1 19.3 0 0
08:07 1029 30.39 858 25.34 0.6 33.1 58 -6.7 19.9 0 0
08:08 1029 30.39 858 25.34 0.5 32.8 59 -6.7 19.9 0 0
08:09 1029 30.39 858 25.34 0.4 32.7 59 -6.6 20.1 0 0
08:10 1029 30.39 858 25.34 0.3 32.5 60 -6.5 20.2 0 0
08:11 1029 30.39 858 25.34 0.3 32.6 59 -6.7 20 0 0
08:12 1029 30.39 858 25.34 0.5 32.9 60 -6.4 20.5 0 0
08:13 1029 30.39 858 25.34 0.6 33.2 60 -6.2 20.8 0 0
08:14 1029 30.39 858 25.34 0.8 33.4 59 -6.3 20.7 0 0
08:15 1029 30.39 858 25.34 0.9 33.7 59 -6.2 20.8 0 0
08:16 1029 30.39 858 25.34 1.2 34.1 57 -6.4 20.4 0 0
08:17 1029 30.39 858 25.34 1.4 34.5 58 -6.1 21.1 0 0
08:18 1029 30.39 858 25.34 1.6 34.8 58 -5.9 21.4 0 0
08:19 1029 30.39 858 25.34 1.8 35.2 54 -6.5 20.3 0 0
08:20 1029 30.39 858 25.34 2.1 35.7 54 -6.4 20.5 0 0
08:21 1029 30.39 858 25.34 2.3 36.1 52 -6.5 20.3 0 0
08:22 1029 30.39 858 25.34 2.6 36.6 50 -6.9 19.5 0 0
08:23 1029 30.39 858 25.34 2.8 37 50 -6.5 20.2 0 0
08:24 1029 30.39 858 25.34 2.9 37.3 47 -7.2 19 0 0
08:25 1029 30.39 858 25.34 3 37.4 47 -7.3 18.9 0 0
08:26 1029 30.39 858 25.34 3.1 37.6 47 -7 19.3 0 0
08:27 1029 30.39 859 25.37 3.3 37.9 47 -7.1 19.2 0 0
08:28 1029 30.39 859 25.37 3.4 38.2 46 -7.2 19 0 0
08:29 1029 30.39 859 25.37 3.6 38.4 46 -7 19.4 0 0
08:30 1029 30.39 859 25.37 3.7 38.7 45 -7.2 19 0 0
08:31 1029 30.39 859 25.37 3.8 38.8 46 -6.8 19.8 0 0
08:32 1029 30.39 859 25.37 3.9 39.1 46 -6.7 20 0 0
08:33 1029 30.39 859 25.37 4.1 39.3 46 -6.7 20 0 0
08:34 1029 30.39 859 25.37 4.2 39.6 47 -6.1 21 0 0
08:35 1029 30.39 859 25.37 4.4 39.9 44 -6.9 19.6 0 0
08:36 1029 30.39 859 25.37 4.6 40.2 44 -6.5 20.3 0 0
08:37 1029 30.39 859 25.37 4.6 40.4 43 -6.7 19.9 0 0
08:38 1029 30.39 859 25.37 4.7 40.5 44 -6.4 20.5 0 0
08:39 1029 30.39 859 25.37 4.9 40.8 42 -6.9 19.6 0 0
08:40 1029 30.39 859 25.37 5 41.1 42 -6.7 19.9 0 0
08:41 1029 30.39 859 25.37 5.1 41.2 43 -6.4 20.5 0 0
08:42 1030 30.42 859 25.37 5.2 41.4 45 -5.7 21.7 0 0
08:43 1030 30.42 859 25.37 5.3 41.6 47 -5.2 22.7 0 0
08:44 1030 30.42 859 25.37 5.4 41.8 47 -5 23 0 0
08:45 1030 30.42 859 25.37 5.5 41.9 47 -5 23 0 0
08:46 1030 30.42 859 25.37 5.6 42 45 -5.3 22.4 0 0
08:47 1030 30.42 859 25.37 5.6 42.1 46 -5.1 22.8 0 0
08:48 1030 30.42 859 25.37 5.6 42 45 -5.3 22.4 0 0
08:49 1030 30.42 859 25.37 5.6 42.1 47 -4.8 23.3 0 0
08:50 1030 30.42 859 25.37 5.7 42.2 47 -4.7 23.5 0 0
08:51 1030 30.42 859 25.37 5.7 42.2 47 -4.7 23.5 0 0
08:52 1030 30.42 859 25.37 5.8 42.4 48 -4.4 24 0 0
08:53 1030 30.42 859 25.37 5.9 42.6 48 -4.3 24.3 0 0
08:54 1030 30.42 859 25.37 6.1 42.9 48 -4.1 24.6 0 0
08:55 1030 30.42 859 25.37 6.3 43.3 46 -4.5 23.8 0 0
08:56 1030 30.42 859 25.37 6.4 43.5 46 -4.3 24.2 0 0
08:57 1030 30.42 859 25.37 6.7 44 45 -4.5 23.9 0 0
08:58 1030 30.42 859 25.37 6.9 44.5 42 -5.2 22.7 0 0
08:59 1030 30.42 859 25.37 7.2 44.9 39 -5.9 21.3 0 0
09:00 1030 30.42 859 25.37 7.4 45.4 37 -6.1 21 0 0
09:01 1030 30.42 859 25.37 7.6 45.7 36 -6.6 20.1 0 0
09:02 1030 30.42 859 25.37 7.8 46 33 -7.6 18.2 0 0
09:03 1030 30.42 859 25.37 7.9 46.2 33 -7.4 18.6 0 0
09:04 1030 30.42 859 25.37 7.9 46.2 36 -6.4 20.4 0 0
09:05 1030 30.42 859 25.37 7.8 46 32 -7.7 18.1 0 0
09:06 1030 30.42 859 25.37 7.7 45.9 32 -7.9 17.8 0 0
09:07 1030 30.42 859 25.37 7.7 45.9 33 -7.6 18.3 0 0
09:08 1030 30.42 859 25.37 7.7 45.9 34 -7 19.5 0 0
09:09 1030 30.42 859 25.37 7.7 45.9 35 -6.9 19.6 0 0
09:10 1030 30.42 859 25.37 7.8 46.1 36 -6.5 20.3 0 0
09:11 1030 30.42 859 25.37 7.9 46.3 32 -7.6 18.4 0 0
09:12 1030 30.42 859 25.37 8.1 46.5 32 -7.7 18.2 0 0
09:13 1030 30.42 859 25.37 8.1 46.6 33 -7.2 19.1 0 0
09:14 1030 30.42 859 25.37 8.2 46.8 32 -7.3 18.8 0 0
09:15 1030 30.42 859 25.37 8.3 47 33 -6.9 19.5 0 0
09:16 1030 30.42 859 25.37 8.4 47.1 30 -8.1 17.3 0 0
09:17 1030 30.42 859 25.37 8.4 47.2 30 -8.1 17.4 0 0
09:18 1030 30.42 859 25.37 8.5 47.3 32 -7.2 19 0 0
09:19 1030 30.42 859 25.37 8.5 47.4 31 -7.8 18 0 0
09:20 1030 30.42 859 25.37 8.5 47.3 29 -8.3 17 0 0
09:21 1030 30.42 859 25.37 8.5 47.3 30 -8.2 17.3 0 0
09:22 1030 30.42 859 25.37 8.5 47.2 31 -7.7 18.1 0 0
09:23 1030 30.42 859 25.37 8.5 47.2 32 -7.2 19.1 0 0
09:24 1030 30.42 859 25.37 8.5 47.3 31 -7.6 18.3 0 0
09:25 1030 30.42 859 25.37 8.5 47.3 30 -8 17.6 0 0
09:26 1030 30.42 859 25.37 8.5 47.4 30 -7.9 17.8 0 0
09:27 1030 30.42 859 25.37 8.6 47.4 30 -8.1 17.5 0 0
09:28 1030 30.42 859 25.37 8.7 47.6 30 -8 17.6 0 0
09:29 1030 30.42 859 25.37 8.7 47.7 29 -8.4 16.9 0 0
09:30 1030 30.42 859 25.37 8.7 47.7 30 -7.9 17.8 0 0
09:31 1030 30.42 859 25.37 8.7 47.7 30 -7.9 17.8 0 0
09:32 1030 30.42 859 25.37 8.7 47.6 29 -8.2 17.2 0 0
09:33 1030 30.42 859 25.37 8.7 47.6 30 -7.9 17.8 0 0
09:34 1030 30.42 859 25.37 8.7 47.7 31 -7.4 18.7 0 0
09:35 1030 30.42 859 25.37 8.8 47.8 29 -8.2 17.2 0 0
09:36 1030 30.42 859 25.37 8.9 48 30 -7.8 18 0 0
09:37 1030 30.42 859 25.37 9 48.1 29 -8.1 17.4 0 0
09:38 1030 30.42 859 25.37 9 48.2 29 -8 17.7 0 0
09:39 1030 30.42 859 25.37 9 48.2 30 -7.8 18 0 0
09:40 1030 30.42 859 25.37 9 48.1 29 -8.3 17 0 0
09:41 1030 30.42 859 25.37 8.9 48 29 -8.2 17.2 0 0
09:42 1030 30.42 859 25.37 8.9 48 30 -7.8 17.9 0 0
09:43 1030 30.42 859 25.37 9 48.2 29 -8.2 17.3 0 0
09:44 1030 30.42 859 25.37 9 48.3 29 -7.9 17.8 0 0
09:45 1030 30.42 859 25.37 9.1 48.3 28 -8.5 16.8 0 0
09:46 1030 30.42 859 25.37 9 48.3 30 -7.5 18.5 0 0
09:47 1030 30.42 859 25.37 9 48.3 29 -7.9 17.8 0 0
09:48 1030 30.42 859 25.37 9 48.3 29 -8 17.6 0 0
09:49 1030 30.42 859 25.37 9 48.2 29 -8.2 17.3 0 0
09:50 1030 30.42 859 25.37 8.9 48.1 30 -7.9 17.8 0 0
09:51 1030 30.42 859 25.37 9 48.1 30 -7.6 18.3 0 0
09:52 1030 30.42 859 25.37 9.1 48.3 30 -7.7 18.1 0 0
09:53 1030 30.42 859 25.37 9.2 48.5 28 -8.3 17.1 0 0
09:54 1030 30.42 859 25.37 9.2 48.6 30 -7.6 18.3 0 0
09:55 1030 30.42 859 25.37 9.3 48.7 30 -7.2 19 0 0
09:56 1030 30.42 859 25.37 9.3 48.7 30 -7.6 18.3 0 0
09:57 1030 30.42 859 25.37 9.4 48.9 28 -8 17.5 0 0
09:58 1030 30.42 859 25.37 9.4 48.9 29 -7.6 18.2 0 0
09:59 1030 30.42 859 25.37 9.4 48.9 30 -7.3 18.9 0 0
10:00 1030 30.42 859 25.37 9.3 48.8 31 -7.1 19.3 0 0
10:01 1030 30.42 859 25.37 9.4 49 29 -7.5 18.4 0 0
10:02 1030 30.42 859 25.37 9.4 48.8 28 -8.1 17.5 0 0
10:03 1030 30.42 859 25.37 9.4 48.8 30 -7.3 18.9 0 0
10:04 1030 30.42 859 25.37 9.4 48.9 28 -8.2 17.3 0 0
10:05 1030 30.42 859 25.37 9.5 49.1 29 -7.7 18.2 0 0
10:06 1030 30.42 859 25.37 9.5 49.1 29 -7.5 18.5 0 0
10:07 1030 30.42 859 25.37 9.5 49.1 28 -8.1 17.5 0 0
10:08 1030 30.42 859 25.37 9.5 49.1 29 -7.8 17.9 0 0
10:09 1030 30.42 859 25.37 9.6 49.3 28 -8 17.5 0 0
10:10 1030 30.42 859 25.37 9.6 49.3 29 -7.7 18.2 0 0
10:11 1030 30.42 859 25.37 9.7 49.5 28 -8.2 17.3 0 0
10:12 1030 30.42 859 25.37 9.8 49.6 29 -7.5 18.4 0 0
10:13 1030 30.42 859 25.37 9.8 49.6 29 -7.5 18.5 0 0
10:14 1030 30.42 859 25.37 10 50 28 -7.5 18.5 0 0
10:15 1030 30.42 859 25.37 10 50 28 -7.5 18.5 0 0
10:16 1030 30.42 859 25.37 10 50.1 28 -7.7 18.1 0 0
10:17 1030 30.42 859 25.37 10 50.1 27 -7.9 17.8 0 0
10:18 1030 30.42 859 25.37 10 49.9 29 -7.3 18.8 0 0
10:19 1030 30.42 859 25.37 10 50.1 28 -7.5 18.5 0 0
10:20 1030 30.42 859 25.37 10 50 27 -7.9 17.8 0 0
10:21 1030 30.42 859 25.37 9.9 49.9 28 -7.5 18.5 0 0
10:22 1030 30.42 859 25.37 9.9 49.8 27 -8.1 17.4 0 0
10:23 1030 30.42 859 25.37 9.9 49.7 28 -7.7 18.1 0 0
10:24 1030 30.42 859 25.37 9.9 49.9 27 -8.3 17 0 0
10:25 1030 30.42 859 25.37 10 49.9 29 -7.1 19.1 0 0
10:26 1030 30.42 859 25.37 10 49.9 26 -8.5 16.6 0 0
10:27 1030 30.42 859 25.37 10.1 50.1 27 -7.9 17.8 0 0
10:28 1030 30.42 859 25.37 10.1 50.2 28 -7.6 18.3 0 0
10:29 1030 30.42 859 25.37 10.1 50.1 27 -8.1 17.4 0 0
10:30 1030 30.42 859 25.37 10 50 29 -7.3 18.8 0 0
10:31 1030 30.42 859 25.37 10.2 50.3 27 -8 17.7 0 0
10:32 1030 30.42 859 25.37 10.2 50.4 27 -7.9 17.8 0 0
10:33 1030 30.42 859 25.37 10.2 50.3 27 -7.8 17.9 0 0
10:34 1030 30.42 859 25.37 10.1 50.2 28 -7.4 18.7 0 0
10:35 1030 30.42 859 25.37 10.1 50.1 28 -7.7 18.2 0 0
10:36 1030 30.42 859 25.37 10 50.1 30 -6.9 19.6 0 0
10:37 1030 30.42 859 25.37 10.2 50.4 28 -7.4 18.6 0 0
10:38 1030 30.42 859 25.37 10.2 50.3 29 -7.1 19.2 0 0
10:39 1030 30.42 859 25.37 10.2 50.3 28 -7.4 18.7 0 0
10:40 1030 30.42 859 25.37 10.2 50.3 28 -7.4 18.7 0 0
10:41 1030 30.42 859 25.37 10.3 50.5 29 -7 19.3 0 0
10:42 1030 30.42 859 25.37 10.4 50.7 29 -7 19.5 0 0
10:43 1030 30.42 859 25.37 10.3 50.6 28 -7.3 18.9 0 0
10:44 1030 30.42 859 25.37 10.3 50.6 29 -6.9 19.6 0 0
10:45 1030 30.42 859 25.37 10.4 50.8 28 -7.2 19.1 0 0
10:46 1030 30.42 859 25.37 10.4 50.7 29 -6.8 19.7 0 0
10:47 1030 30.42 859 25.37 10.3 50.6 29 -7.1 19.3 0 0
10:48 1030 30.42 859 25.37 10.3 50.5 29 -6.9 19.6 0 0
10:49 1030 30.42 859 25.37 10.3 50.5 28 -7.2 19 0 0
10:50 1030 30.42 859 25.37 10.3 50.5 28 -7.6 18.3 0 0
10:51 1030 30.42 859 25.37 10.2 50.4 28 -7.4 18.7 0 0
10:52 1030 30.42 859 25.37 10.3 50.5 29 -6.9 19.6 0 0
10:53 1030 30.42 859 25.37 10.4 50.7 29 -6.8 19.8 0 0
10:54 1030 30.42 859 25.37 10.4 50.7 28 -7.4 18.7 0 0
10:55 1030 30.42 859 25.37 10.5 50.8 28 -7.3 18.8 0 0
10:56 1030 30.42 859 25.37 10.5 50.9 27 -7.9 17.8 0 0
10:57 1030 30.42 859 25.37 10.5 50.9 29 -6.9 19.5 0 0
10:58 1030 30.42 859 25.37 10.6 51 29 -6.7 19.9 0 0
10:59 1030 30.42 859 25.37 10.7 51.2 27 -7.4 18.7 0 0
11:00 1030 30.42 859 25.37 10.6 51.1 27 -7.8 17.9 0 0
11:01 1030 30.42 859 25.37 10.6 51.2 25 -8.4 16.9 0 0
11:02 1030 30.42 859 25.37 10.7 51.2 26 -8.1 17.4 0 0
11:03 1030 30.42 859 25.37 10.7 51.2 28 -6.9 19.5 0 0
11:04 1030 30.42 859 25.37 10.8 51.4 27 -7.4 18.6 0 0
11:05 1030 30.42 859 25.37 10.9 51.6 25 -8.1 17.4 0 0
11:06 1030 30.42 859 25.37 10.9 51.7 27 -7.1 19.2 0 0
11:07 1030 30.42 859 25.37 11 51.7 29 -6.2 20.8 0 0
11:08 1030 30.42 859 25.37 11.2 52.2 26 -7.5 18.6 0 0
11:09 1030 30.42 859 25.37 11.2 52.2 26 -7.4 18.7 0 0
11:10 1030 30.42 859 25.37 11.1 51.9 26 -7.6 18.3 0 0
11:11 1030 30.42 859 25.37 10.9 51.6 27 -7.2 19 0 0
11:12 1030 30.42 859 25.37 10.8 51.5 28 -7 19.4 0 0
11:13 1030 30.42 859 25.37 10.9 51.5 29 -6.4 20.4 0 0
11:14 1030 30.42 859 25.37 11 51.8 27 -7.2 19 0 0
11:15 1030 30.42 859 25.37 10.9 51.7 29 -6.4 20.5 0 0
11:16 1030 30.42 859 25.37 11 51.7 29 -6.2 20.8 0 0
11:17 1030 30.42 859 25.37 11.1 52.1 26 -7.7 18.2 0 0
11:18 1030 30.42 859 25.37 11 51.9 27 -7.1 19.2 0 0
11:19 1030 30.42 859 25.37 11 51.8 28 -7 19.4 0 0
11:20 1030 30.42 859 25.37 11.1 51.9 27 -7 19.4 0 0
11:21 1030 30.42 859 25.37 11.1 52 29 -6.4 20.5 0 0
11:22 1030 30.42 859 25.37 11.3 52.3 27 -7.2 19.1 0 0
11:23 1030 30.42 859 25.37 11.3 52.4 26 -7.4 18.7 0 0
11:24 1030 30.42 859 25.37 11.3 52.3 30 -5.5 22.2 0 0
11:25 1030 30.42 859 25.37 11.4 52.5 29 -6.1 21.1 0 0
11:26 1030 30.42 859 25.37 11.5 52.7 26 -7.5 18.5 0 0
11:27 1030 30.42 859 25.37 11.6 52.9 26 -7.1 19.1 0 0
11:28 1030 30.42 859 25.37 11.6 52.8 27 -6.9 19.5 0 0
11:29 1030 30.42 859 25.37 11.5 52.7 27 -6.6 20.1 0 0
11:30 1030 30.42 859 25.37 11.5 52.7 26 -7.3 18.8 0 0
11:31 1030 30.42 859 25.37 11.4 52.5 27 -6.8 19.8 0 0
11:32 1030 30.42 859 25.37 11.4 52.5 27 -7 19.4 0 0
11:33 1030 30.42 859 25.37 11.5 52.6 26 -7.5 18.6 0 0
11:34 1030 30.42 859 25.37 11.5 52.6 28 -6.6 20.1 0 0
11:35 1030 30.42 860 25.4 11.6 52.8 27 -6.7 20 0 0
11:36 1030 30.42 860 25.4 11.7 53 26 -7.2 19 0 0
11:37 1030 30.42 860 25.4 11.7 53 28 -6.1 21 0 0
11:38 1030 30.42 859 25.37 11.7 53.1 26 -7 19.4 0 0
11:39 1030 30.42 860 25.4 11.6 52.9 25 -7.7 18.1 0 0
11:40 1030 30.42 860 25.4 11.7 53 26 -7.4 18.6 0 0
11:41 1030 30.42 860 25.4 11.7 53.1 26 -7.4 18.7 0 0
11:42 1030 30.42 860 25.4 11.7 53.1 26 -7.3 18.8 0 0
11:43 1030 30.42 860 25.4 11.7 53 26 -7.4 18.7 0 0
11:44 1030 30.42 860 25.4 11.5 52.7 26 -7.4 18.7 0 0
11:45 1030 30.42 860 25.4 11.5 52.7 25 -7.6 18.3 0 0
11:46 1030 30.42 860 25.4 11.5 52.6 25 -7.7 18.2 0 0
11:47 1030 30.42 860 25.4 11.5 52.6 26 -7.2 19.1 0 0
11:48 1030 30.42 860 25.4 11.6 52.9 27 -6.7 19.9 0 0
11:49 1030 30.42 860 25.4 11.7 53 26 -7.4 18.7 0 0
11:50 1030 30.42 860 25.4 11.5 52.7 25 -7.7 18.2 0 0
11:51 1030 30.42 859 25.37 11.4 52.5 26 -7.3 18.8 0 0
11:52 1030 30.42 859 25.37 11.5 52.8 25 -7.7 18.1 0 0
11:53 1030 30.42 859 25.37 11.5 52.7 26 -7.5 18.5 0 0
11:54 1030 30.42 859 25.37 11.5 52.8 26 -7.5 18.5 0 0
11:55 1030 30.42 859 25.37 11.6 52.8 26 -7.2 19 0 0
11:56 1030 30.42 859 25.37 11.7 53 25 -7.5 18.4 0 0
11:57 1030 30.42 859 25.37 11.8 53.2 27 -6.6 20.2 0 0
11:58 1030 30.42 859 25.37 12.1 53.7 25 -7.3 18.8 0 0
11:59 1030 30.42 859 25.37 11.9 53.5 26 -6.8 19.7 0 0
12:00 1030 30.42 859 25.37 11.9 53.4 24 -8.1 17.5 0 0
12:01 1030 30.42 859 25.37 11.8 53.3 26 -7.3 18.9 0 0
12:02 1030 30.42 859 25.37 12 53.5 25 -7.2 19 0 0
12:03 1030 30.42 859 25.37 12 53.6 24 -7.9 17.9 0 0
12:04 1030 30.42 859 25.37 12 53.6 24 -7.7 18.2 0 0
12:05 1030 30.42 859 25.37 12.1 53.8 25 -7.1 19.3 0 0
12:06 1030 30.42 859 25.37 12.3 54.1 23 -8.2 17.2 0 0
12:07 1030 30.42 859 25.37 12.3 54.2 23 -8.3 17.1 0 0
12:08 1030 30.42 859 25.37 12.4 54.2 23 -8 17.6 0 0
12:09 1030 30.42 859 25.37 12.3 54.2 23 -8.3 17 0 0
12:10 1030 30.42 859 25.37 12.2 53.9 24 -7.6 18.3 0 0
12:11 1030 30.42 859 25.37 12.1 53.8 24 -7.7 18.1 0 0
12:12 1030 30.42 859 25.37 12.2 53.9 24 -8.1 17.5 0 0
12:13 1030 30.42 859 25.37 12.3 54.2 24 -7.5 18.6 0 0
12:14 1030 30.42 859 25.37 12.5 54.4 24 -7.6 18.3 0 0
12:15 1030 30.42 859 25.37 12.6 54.7 23 -7.8 18 0 0
12:16 1030 30.42 859 25.37 12.8 55 22 -8.1 17.3 0 0
12:17 1030 30.42 859 25.37 12.8 55 23 -7.8 18 0 0
12:18 1030 30.42 859 25.37 12.7 54.8 24 -7.2 19 0 0
12:19 1030 30.42 859 25.37 12.6 54.7 24 -7.1 19.2 0 0
12:20 1030 30.42 859 25.37 12.6 54.7 25 -7.1 19.3 0 0
12:21 1030 30.42 859 25.37 12.7 54.8 24 -7.2 19 0 0
12:22 1030 30.42 859 25.37 12.8 55.1 24 -7.2 19 0 0
12:23 1030 30.42 859 25.37 13 55.3 22 -8.2 17.3 0 0
12:24 1030 30.42 859 25.37 13 55.5 23 -7.7 18.2 0 0
12:25 1030 30.42 859 25.37 12.9 55.3 24 -6.9 19.6 0 0
12:26 1030 30.42 859 25.37 12.9 55.2 23 -7.6 18.3 0 0
12:27 1030 30.42 859 25.37 12.8 55 24 -7.3 18.8 0 0
12:28 1030 30.42 859 25.37 12.7 54.8 25 -6.9 19.6 0 0
12:29 1030 30.42 859 25.37 12.6 54.7 24 -7.4 18.6 0 0
12:30 1030 30.42 859 25.37 12.5 54.6 23 -7.8 18 0 0
12:31 1030 30.42 859 25.37 12.4 54.3 24 -7.3 18.8 0 0
12:32 1030 30.42 859 25.37 12.4 54.3 24 -7.4 18.7 0 0
12:33 1030 30.42 859 25.37 12.4 54.3 25 -7.1 19.3 0 0
12:34 1030 30.42 859 25.37 12.5 54.4 24 -7.8 18 0 0
12:35 1030 30.42 859 25.37 12.5 54.5 23 -7.8 18 0 0
12:36 1030 30.42 859 25.37 12.5 54.6 24 -7.5 18.5 0 0
12:37 1030 30.42 859 25.37 12.6 54.7 25 -6.9 19.6 0 0
12:38 1030 30.42 859 25.37 12.6 54.7 23 -7.9 17.7 0 0
12:39 1030 30.42 859 25.37 12.7 54.8 24 -7.3 18.8 0 0
12:40 1030 30.42 859 25.37 12.7 54.9 23 -8 17.5 0 0
12:41 1030 30.42 859 25.37 12.6 54.7 26 -6.5 20.2 0 0
12:42 1030 30.42 859 25.37 12.4 54.4 23 -8 17.6 0 0
12:43 1030 30.42 859 25.37 12.3 54.1 23 -8 17.7 0 0
12:44 1030 30.42 859 25.37 12.3 54.2 26 -6.6 20.1 0 0
12:45 1030 30.42 859 25.37 12.5 54.5 22 -8.4 16.9 0 0
12:46 1030 30.42 859 25.37 12.5 54.6 24 -7.7 18.1 0 0
12:47 1030 30.42 859 25.37 12.7 54.9 23 -7.6 18.3 0 0
12:48 1030 30.42 859 25.37 12.7 54.9 23 -7.9 17.7 0 0
12:49 1030 30.42 859 25.37 12.8 55.1 22 -8.1 17.5 0 0
12:50 1030 30.42 859 25.37 12.9 55.3 22 -8.5 16.8 0 0
12:51 1030 30.42 859 25.37 13 55.4 22 -8.1 17.5 0 0
12:52 1030 30.42 859 25.37 13 55.3 23 -7.5 18.6 0 0
12:53 1030 30.42 859 25.37 13.1 55.5 24 -7.2 19 0 0
12:54 1030 30.42 859 25.37 13 55.4 24 -7.2 19.1 0 0
12:55 1030 30.42 859 25.37 12.9 55.3 22 -8.1 17.5 0 0
12:56 1030 30.42 859 25.37 12.7 54.9 25 -7 19.5 0 0
12:57 1030 30.42 859 25.37 12.9 55.3 23 -7.8 18 0 0
12:58 1030 30.42 859 25.37 13 55.4 24 -7.1 19.3 0 0
12:59 1030 30.42 859 25.37 13 55.4 23 -7.9 17.8 0 0
13:00 1030 30.42 859 25.37 12.8 55 23 -7.9 17.7 0 0
13:01 1030 30.42 859 25.37 12.7 54.8 22 -8.4 16.8 0 0
13:02 1030 30.42 859 25.37 12.6 54.6 23 -8.3 17.1 0 0
13:03 1030 30.42 859 25.37 12.6 54.7 22 -8.8 16.2 0 0
13:04 1030 30.42 859 25.37 12.8 55 23 -7.6 18.3 0 0
13:05 1030 30.42 859 25.37 12.9 55.2 23 -7.7 18.2 0 0
13:06 1030 30.42 859 25.37 13.1 55.6 22 -8.4 16.9 0 0
13:07 1030 30.42 859 25.37 13 55.4 22 -8.4 16.9 0 0
13:08 1030 30.42 859 25.37 13 55.5 21 -8.6 16.5 0 0
13:09 1030 30.42 859 25.37 13.3 55.9 23 -7.1 19.1 0 0
13:10 1030 30.42 859 25.37 13.4 56.1 22 -8 17.5 0 0
13:11 1030 30.42 859 25.37 13.5 56.4 23 -7.3 18.9 0 0
13:12 1030 30.42 859 25.37 13.6 56.6 22 -7.6 18.3 0 0
13:13 1030 30.42 859 25.37 13.6 56.5 23 -7.2 19 0 0
13:14 1030 30.42 859 25.37 13.4 56.1 22 -8.1 17.5 0 0
13:15 1030 30.42 859 25.37 13.4 56 22 -7.8 17.9 0 0
13:16 1030 30.42 859 25.37 13.3 55.9 21 -8.6 16.5 0 0
13:17 1030 30.42 859 25.37 13.3 55.9 24 -6.9 19.5 0 0
13:18 1030 30.42 859 25.37 13.4 56.2 21 -8.5 16.8 0 0
13:19 1030 30.42 859 25.37 13.6 56.6 22 -7.8 17.9 0 0
13:20 1030 30.42 859 25.37 13.7 56.7 22 -7.6 18.2 0 0
13:21 1030 30.42 859 25.37 13.6 56.5 23 -7.3 18.8 0 0
13:22 1030 30.42 859 25.37 13.6 56.4 22 -7.7 18.1 0 0
13:23 1030 30.42 859 25.37 13.6 56.5 22 -7.4 18.6 0 0
13:24 1030 30.42 859 25.37 13.6 56.4 22 -7.8 18 0 0
13:25 1030 30.42 859 25.37 13.4 56.2 24 -6.8 19.8 0 0
13:26 1030 30.42 859 25.37 13.4 56 23 -7.3 18.9 0 0
13:27 1030 30.42 859 25.37 13.4 56.1 22 -8.1 17.4 0 0
13:28 1030 30.42 859 25.37 13.3 56 22 -7.7 18.2 0 0
13:29 1030 30.42 859 25.37 13.3 56 23 -7.4 18.7 0 0
13:30 1030 30.42 859 25.37 13.4 56.1 21 -8.2 17.3 0 0
13:31 1030 30.42 859 25.37 13.5 56.3 23 -7.4 18.7 0 0
13:32 1030 30.42 859 25.37 13.6 56.5 23 -7.4 18.7 0 0
13:33 1030 30.42 859 25.37 13.7 56.6 22 -7.5 18.4 0 0
13:34 1030 30.42 859 25.37 13.6 56.5 21 -8.5 16.7 0 0
13:35 1030 30.42 859 25.37 13.5 56.3 22 -7.9 17.7 0 0
13:36 1030 30.42 859 25.37 13.7 56.6 22 -7.6 18.3 0 0
13:37 1030 30.42 859 25.37 13.9 57 22 -7.4 18.6 0 0
13:38 1030 30.42 859 25.37 13.7 56.7 21 -8.4 16.9 0 0
13:39 1030 30.42 859 25.37 13.6 56.4 21 -8.4 16.9 0 0
13:40 1030 30.42 859 25.37 13.4 56 23 -7.3 18.8 0 0
13:41 1030 30.42 859 25.37 13.4 56 22 -7.9 17.7 0 0
13:42 1030 30.42 859 25.37 13.6 56.5 23 -7.2 19 0 0
13:43 1030 30.42 859 25.37 13.7 56.6 21 -8.1 17.5 0 0
13:44 1030 30.42 859 25.37 13.6 56.5 21 -8.1 17.4 0 0
13:45 1030 30.42 859 25.37 13.6 56.6 22 -7.7 18.1 0 0
13:46 1030 30.42 859 25.37 13.8 56.8 23 -6.9 19.6 0 0
13:47 1030 30.42 859 25.37 14 57.2 21 -8.1 17.5 0 0
13:48 1030 30.42 859 25.37 13.9 56.9 22 -7.5 18.5 0 0
13:49 1030 30.42 859 25.37 13.8 56.8 22 -7.5 18.5 0 0
13:50 1030 30.42 859 25.37 13.8 56.9 22 -7.7 18.1 0 0
13:51 1030 30.42 859 25.37 14 57.2 23 -6.8 19.7 0 0
13:52 1030 30.42 859 25.37 14.3 57.7 21 -7.9 17.7 0 0
13:53 1030 30.42 859 25.37 14.4 57.9 20 -8.3 17 0 0
13:54 1030 30.42 859 25.37 14.3 57.7 21 -7.6 18.3 0 0
13:55 1030 30.42 859 25.37 14.3 57.8 22 -7.1 19.2 0 0
13:56 1030 30.42 859 25.37 14.4 57.9 22 -7 19.5 0 0
13:57 1030 30.42 859 25.37 14.2 57.6 21 -8.1 17.5 0 0
13:58 1030 30.42 859 25.37 14.1 57.5 20 -8.7 16.4 0 0
13:59 1030 30.42 859 25.37 14.1 57.3 20 -8.6 16.6 0 0
14:00 1030 30.42 859 25.37 14 57.3 21 -8 17.6 0 0
14:01 1030 30.42 859 25.37 14 57.3 20 -8.3 17 0 0
14:02 1030 30.42 859 25.37 13.9 57.1 20 -8.4 16.8 0 0
14:03 1030 30.42 859 25.37 13.8 56.9 21 -8.2 17.3 0 0
14:04 1030 30.42 859 25.37 13.7 56.7 21 -8.4 16.9 0 0
14:05 1030 30.42 859 25.37 13.7 56.7 21 -8.4 17 0 0
14:06 1030 30.42 859 25.37 13.9 57 20 -8.5 16.7 0 0
14:07 1030 30.42 859 25.37 14 57.2 20 -8.5 16.8 0 0
14:08 1030 30.42 859 25.37 14.2 57.5 20 -8.4 17 0 0
14:09 1030 30.42 859 25.37 14.3 57.7 19 -8.9 15.9 0 0
14:10 1030 30.42 859 25.37 14.4 57.9 21 -7.8 17.9 0 0
14:11 1030 30.42 859 25.37 14.6 58.3 21 -7.4 18.6 0 0
14:12 1030 30.42 859 25.37 14.8 58.7 21 -7.2 19.1 0 0
14:13 1030 30.42 859 25.37 14.8 58.7 21 -7.3 18.9 0 0
14:14 1030 30.42 859 25.37 14.7 58.5 19 -8.9 16.1 0 0
14:15 1030 30.42 859 25.37 14.4 57.9 19 -9.1 15.7 0 0
14:16 1030 30.42 859 25.37 14.3 57.8 20 -8.5 16.8 0 0
14:17 1030 30.42 859 25.37 14.4 57.8 20 -8.5 16.7 0 0
14:18 1030 30.42 859 25.37 14.3 57.7 19 -8.7 16.4 0 0
14:19 1030 30.42 859 25.37 14.1 57.4 20 -8.5 16.6 0 0
14:20 1030 30.42 859 25.37 14.1 57.3 20 -8.5 16.6 0 0
14:21 1030 30.42 859 25.37 14.2 57.5 21 -8 17.5 0 0
14:22 1030 30.42 859 25.37 14.4 57.8 20 -8.4 16.9 0 0
14:23 1030 30.42 859 25.37 14.3 57.8 19 -9.1 15.6 0 0
14:24 1030 30.42 859 25.37 14.3 57.8 18 -9.7 14.6 0 0
14:25 1030 30.42 859 25.37 14.3 57.8 18 -9.3 15.2 0 0
14:26 1030 30.42 859 25.37 14.4 57.9 19 -8.9 16 0 0
14:27 1030 30.42 859 25.37 14.6 58.3 19 -8.9 15.9 0 0
14:28 1030 30.42 859 25.37 14.8 58.7 18 -9.3 15.2 0 0
14:29 1030 30.42 859 25.37 14.8 58.6 19 -8.6 16.5 0 0
14:30 1030 30.42 859 25.37 14.7 58.5 20 -8.1 17.5 0 0
14:31 1030 30.42 859 25.37 14.8 58.7 17 -10 14 0 0
14:32 1030 30.42 859 25.37 14.8 58.6 18 -9.5 14.9 0 0
14:33 1030 30.42 859 25.37 14.8 58.6 18 -9.2 15.5 0 0
14:34 1030 30.42 859 25.37 14.8 58.7 18 -9.5 14.9 0 0
14:35 1030 30.42 859 25.37 15 59 20 -8 17.5 0 0
14:36 1030 30.42 859 25.37 15.1 59.2 18 -8.7 16.3 0 0
14:37 1030 30.42 859 25.37 15.2 59.4 20 -7.6 18.3 0 0
14:38 1030 30.42 859 25.37 15.2 59.4 20 -7.6 18.3 0 0
14:39 1030 30.42 859 25.37 15.3 59.5 17 -9.6 14.7 0 0
14:40 1030 30.42 859 25.37 15 59 17 -9.7 14.5 0 0
14:41 1030 30.42 859 25.37 14.6 58.3 18 -9.5 15 0 0
14:42 1029 30.39 859 25.37 14.4 58 19 -8.6 16.6 0 0
14:43 1030 30.42 859 25.37 14.6 58.2 18 -9.1 15.5 0 0
14:44 1030 30.42 859 25.37 14.5 58.1 19 -9 15.8 0 0
14:45 1030 30.42 859 25.37 14.5 58.1 19 -8.5 16.7 0 0
14:46 1029 30.39 859 25.37 14.6 58.2 19 -8.9 16 0 0
14:47 1029 30.39 859 25.37 14.7 58.5 20 -7.9 17.8 0 0
14:48 1029 30.39 859 25.37 14.8 58.7 20 -8.2 17.3 0 0
14:49 1029 30.39 859 25.37 14.8 58.6 19 -8.5 16.7 0 0
14:50 1029 30.39 859 25.37 14.7 58.5 18 -9.3 15.2 0 0
14:51 1029 30.39 859 25.37 14.7 58.4 18 -9.3 15.2 0 0
14:52 1029 30.39 859 25.37 14.6 58.3 20 -8.1 17.5 0 0
14:53 1029 30.39 859 25.37 14.9 58.8 19 -8.5 16.7 0 0
14:54 1029 30.39 859 25.37 15.1 59.2 19 -7.9 17.7 0 0
14:55 1029 30.39 859 25.37 15.3 59.5 19 -8.3 17.1 0 0
14:56 1029 30.39 859 25.37 15.1 59.2 20 -7.7 18.1 0 0
14:57 1029 30.39 859 25.37 15 59 18 -9.3 15.3 0 0
14:58 1029 30.39 859 25.37 15 58.9 18 -9.5 15 0 0
14:59 1029 30.39 859 25.37 14.9 58.8 18 -9.3 15.2 0 0
15:00 1029 30.39 859 25.37 14.8 58.7 20 -7.8 17.9 0 0
15:01 1029 30.39 859 25.37 14.7 58.5 18 -9.4 15.1 0 0
15:02 1029 30.39 859 25.37 14.7 58.4 18 -9.2 15.5 0 0
15:03 1029 30.39 858 25.34 14.7 58.4 18 -9.5 14.9 0 0
15:04 1029 30.39 858 25.34 14.8 58.6 19 -8.5 16.7 0 0
15:05 1029 30.39 859 25.37 14.9 58.8 19 -8.2 17.3 0 0
15:06 1029 30.39 859 25.37 15 59 19 -8.7 16.4 0 0
15:07 1029 30.39 859 25.37 15 59 20 -7.9 17.7 0 0
15:08 1029 30.39 859 25.37 15 59 19 -8.4 17 0 0
15:09 1029 30.39 859 25.37 15 59.1 20 -7.7 18.2 0 0
15:10 1029 30.39 859 25.37 15.1 59.2 18 -9 15.8 0 0
15:11 1029 30.39 859 25.37 15.2 59.3 17 -9.5 14.9 0 0
15:12 1029 30.39 859 25.37 15.2 59.3 18 -8.9 15.9 0 0
15:13 1029 30.39 859 25.37 15.2 59.3 18 -8.9 16 0 0
15:14 1029 30.39 859 25.37 15.2 59.4 21 -7.1 19.2 0 0
15:15 1029 30.39 859 25.37 15.3 59.6 18 -8.8 16.1 0 0
15:16 1029 30.39 859 25.37 15 59 20 -7.4 18.7 0 0
15:17 1029 30.39 859 25.37 15.2 59.4 19 -8 17.7 0 0
15:18 1029 30.39 859 25.37 15.5 59.9 18 -8.4 16.8 0 0
15:19 1029 30.39 859 25.37 15.5 60 18 -8.9 15.9 0 0
15:20 1029 30.39 859 25.37 15.4 59.7 17 -9.8 14.4 0 0
15:21 1029 30.39 859 25.37 15.3 59.5 18 -8.6 16.5 0 0
15:22 1029 30.39 859 25.37 15.1 59.2 18 -9.2 15.4 0 0
15:23 1029 30.39 859 25.37 14.9 58.9 19 -8.2 17.3 0 0
15:24 1029 30.39 859 25.37 15 58.9 17 -9.5 14.9 0 0
15:25 1029 30.39 859 25.37 14.9 58.7 18 -9.4 15 0 0
15:26 1029 30.39 859 25.37 14.7 58.5 18 -9.5 15 0 0
15:27 1029 30.39 859 25.37 14.6 58.3 18 -9.3 15.2 0 0
15:28 1029 30.39 859 25.37 14.6 58.2 19 -8.7 16.4 0 0
15:29 1029 30.39 859 25.37 14.6 58.3 19 -8.5 16.6 0 0
15:30 1029 30.39 859 25.37 14.8 58.7 17 -9.8 14.4 0 0
15:31 1029 30.39 859 25.37 14.9 58.7 18 -9.1 15.7 0 0
15:32 1029 30.39 859 25.37 14.8 58.6 18 -9.4 15 0 0
15:33 1029 30.39 859 25.37 14.9 58.7 18 -9.4 15.1 0 0
15:34 1030 30.42 859 25.37 15 59.1 18 -9.2 15.4 0 0
15:35 1030 30.42 859 25.37 15.3 59.5 19 -8.2 17.2 0 0
15:36 1030 30.42 859 25.37 15.5 59.9 18 -9 15.8 0 0
15:37 1030 30.42 859 25.37 15.4 59.8 18 -8.5 16.7 0 0
15:38 1030 30.42 859 25.37 15.4 59.6 17 -9.5 15 0 0
15:39 1030 30.42 859 25.37 15.3 59.5 19 -7.9 17.7 0 0
15:40 1030 30.42 859 25.37 15.5 59.9 18 -8.8 16.2 0 0
15:41 1030 30.42 859 25.37 15.5 59.9 18 -8.9 16 0 0
15:42 1030 30.42 859 25.37 15.4 59.8 19 -8.3 17.1 0 0
15:43 1030 30.42 859 25.37 15.3 59.6 18 -8.5 16.7 0 0
15:44 1030 30.42 859 25.37 15.4 59.6 17 -9.4 15.1 0 0
15:45 1030 30.42 859 25.37 15.3 59.5 19 -7.9 17.9 0 0
15:46 1030 30.42 859 25.37 15.4 59.7 19 -7.8 17.9 0 0
15:47 1030 30.42 859 25.37 15.4 59.8 18 -8.9 16 0 0
15:48 1030 30.42 859 25.37 15.5 59.9 18 -8.5 16.7 0 0
15:49 1029 30.39 859 25.37 15.7 60.2 18 -8.5 16.7 0 0
15:50 1030 30.42 859 25.37 15.7 60.2 17 -9.4 15.2 0 0
15:51 1029 30.39 859 25.37 15.7 60.3 18 -8.8 16.1 0 0
15:52 1029 30.39 859 25.37 15.7 60.3 18 -8.3 17.1 0 0
15:53 1029 30.39 859 25.37 15.8 60.5 18 -8.3 17 0 0
15:54 1029 30.39 859 25.37 15.8 60.5 17 -9 15.7 0 0
15:55 1029 30.39 859 25.37 15.8 60.4 17 -8.9 15.9 0 0
15:56 1029 30.39 859 25.37 15.8 60.4 18 -8.5 16.8 0 0
15:57 1029 30.39 859 25.37 15.9 60.5 18 -8.7 16.3 0 0
15:58 1029 30.39 859 25.37 16 60.7 18 -8.2 17.3 0 0
15:59 1029 30.39 859 25.37 16.1 61 18 -8.4 16.9 0 0
16:00 1029 30.39 859 25.37 16.2 61.2 18 -8 17.5 0 0
16:01 1029 30.39 859 25.37 16.3 61.3 17 -8.8 16.2 0 0
16:02 1029 30.39 859 25.37 16.4 61.4 18 -8 17.6 0 0
16:03 1029 30.39 859 25.37 16.4 61.6 16 -9.2 15.5 0 0
16:04 1029 30.39 859 25.37 16.4 61.4 16 -9.5 14.9 0 0
16:05 1029 30.39 859 25.37 16.3 61.3 16 -9.2 15.4 0 0
16:06 1029 30.39 859 25.37 16.3 61.3 16 -9.5 14.9 0 0
16:07 1029 30.39 859 25.37 15.9 60.7 17 -9.3 15.2 0 0
16:08 1029 30.39 859 25.37 15.8 60.4 18 -8.1 17.4 0 0
16:09 1029 30.39 859 25.37 15.8 60.4 18 -8.5 16.7 0 0
16:10 1029 30.39 859 25.37 15.8 60.4 17 -9 15.8 0 0
16:11 1029 30.39 859 25.37 15.8 60.4 17 -8.9 15.9 0 0
16:12 1029 30.39 859 25.37 15.8 60.5 17 -8.9 16 0 0
16:13 1029 30.39 859 25.37 15.9 60.6 18 -8.5 16.8 0 0
16:14 1029 30.39 859 25.37 15.9 60.7 18 -8.1 17.5 0 0
16:15 1029 30.39 858 25.34 16.1 61 18 -8.4 16.8 0 0
16:16 1029 30.39 858 25.34 16.2 61.2 17 -9.1 15.7 0 0
16:17 1029 30.39 858 25.34 16.2 61.2 16 -9.4 15.2 0 0
16:18 1029 30.39 858 25.34 16.2 61.1 18 -8.3 17.1 0 0
16:19 1029 30.39 858 25.34 16.2 61.1 18 -8.4 16.8 0 0
16:20 1029 30.39 858 25.34 15.9 60.7 16 -9.5 15 0 0
16:21 1029 30.39 858 25.34 15.8 60.4 19 -7.9 17.7 0 0
16:22 1029 30.39 858 25.34 15.7 60.3 18 -8.5 16.8 0 0
16:23 1029 30.39 858 25.34 15.7 60.3 17 -9.3 15.2 0 0
16:24 1029 30.39 858 25.34 15.7 60.3 16 -9.7 14.6 0 0
16:25 1029 30.39 858 25.34 15.8 60.4 16 -10 14 0 0
16:26 1029 30.39 858 25.34 15.9 60.7 19 -7.9 17.9 0 0
16:27 1029 30.39 858 25.34 16 60.8 16 -9.9 14.1 0 0
16:28 1029 30.39 858 25.34 16 60.7 17 -9.4 15.1 0 0
16:29 1029 30.39 858 25.34 15.9 60.7 17 -9.2 15.5 0 0
16:30 1029 30.39 858 25.34 16 60.7 18 -8.1 17.4 0 0
16:31 1029 30.39 858 25.34 16 60.8 16 -9.9 14.3 0 0
16:32 1029 30.39 858 25.34 16 60.8 16 -9.4 15.1 0 0
16:33 1029 30.39 858 25.34 16 60.8 17 -8.9 15.9 0 0
16:34 1029 30.39 858 25.34 15.9 60.6 18 -8.4 16.8 0 0
16:35 1029 30.39 858 25.34 16 60.7 17 -8.8 16.1 0 0
16:36 1029 30.39 858 25.34 16.2 61.1 16 -9.8 14.4 0 0
16:37 1029 30.39 858 25.34 16.2 61.2 17 -9 15.8 0 0
16:38 1029 30.39 858 25.34 16.2 61.2 17 -8.9 16 0 0
16:39 1029 30.39 858 25.34 16.4 61.5 17 -8.5 16.7 0 0
16:40 1029 30.39 858 25.34 16.6 61.9 16 -9 15.8 0 0
16:41 1029 30.39 858 25.34 16.4 61.6 15 -10.2 13.7 0 0
16:42 1029 30.39 858 25.34 16 60.8 16 -9.9 14.2 0 0
16:43 1029 30.39 858 25.34 15.8 60.5 17 -9.3 15.2 0 0
16:44 1029 30.39 858 25.34 15.8 60.5 16 -9.9 14.2 0 0
16:45 1029 30.39 858 25.34 15.7 60.3 17 -9.2 15.5 0 0
16:46 1029 30.39 858 25.34 15.7 60.2 16 -9.7 14.5 0 0
16:47 1029 30.39 858 25.34 15.7 60.3 17 -9 15.8 0 0
16:48 1029 30.39 858 25.34 15.7 60.3 17 -9.5 14.9 0 0
16:49 1029 30.39 858 25.34 15.9 60.6 17 -9.4 15.1 0 0
16:50 1029 30.39 858 25.34 16.2 61.1 16 -9.4 15.1 0 0
16:51 1029 30.39 858 25.34 16.3 61.4 16 -9.5 14.9 0 0
16:52 1029 30.39 858 25.34 16.4 61.6 16 -9.7 14.5 0 0
16:53 1029 30.39 858 25.34 16.4 61.5 17 -9 15.8 0 0
16:54 1029 30.39 858 25.34 16.3 61.4 17 -8.7 16.3 0 0
16:55 1029 30.39 858 25.34 16.3 61.4 16 -9.4 15.1 0 0
16:56 1029 30.39 858 25.34 16.4 61.5 16 -9.4 15 0 0
16:57 1029 30.39 858 25.34 16.4 61.5 17 -8.8 16.1 0 0
16:58 1029 30.39 858 25.34 16.4 61.5 16 -9.1 15.6 0 0
16:59 1029 30.39 858 25.34 16.4 61.6 16 -9.5 15 0 0
17:00 1029 30.39 858 25.34 16.5 61.7 16 -9.2 15.5 0 0
17:01 1029 30.39 858 25.34 16.5 61.7 16 -9.2 15.4 0 0
17:02 1029 30.39 858 25.34 16.5 61.7 15 -10 14 0 0
17:03 1029 30.39 858 25.34 16.4 61.5 17 -8.9 16 0 0
17:04 1029 30.39 858 25.34 16.3 61.4 16 -9.5 14.9 0 0
17:05 1029 30.39 858 25.34 16.4 61.5 16 -9.6 14.7 0 0
17:06 1029 30.39 858 25.34 16.6 61.9 17 -8.4 16.9 0 0
17:07 1029 30.39 858 25.34 16.8 62.2 17 -8.6 16.5 0 0
17:08 1029 30.39 858 25.34 16.8 62.3 16 -9.2 15.4 0 0
17:09 1029 30.39 858 25.34 16.9 62.3 16 -9 15.8 0 0
17:10 1029 30.39 858 25.34 17 62.6 15 -9.5 14.9 0 0
17:11 1029 30.39 858 25.34 16.9 62.5 15 -10 14 0 0
17:12 1029 30.39 858 25.34 16.6 61.9 17 -8.3 17 0 0
17:13 1029 30.39 858 25.34 16.4 61.5 17 -9 15.7 0 0
17:14 1029 30.39 858 25.34 16.4 61.6 16 -9.4 15.1 0 0
17:15 1029 30.39 858 25.34 16.5 61.8 17 -8.7 16.4 0 0
17:16 1029 30.39 858 25.34 16.5 61.7 17 -8.4 16.9 0 0
17:17 1029 30.39 858 25.34 16.4 61.6 16 -9.5 14.9 0 0
17:18 1029 30.39 858 25.34 16.4 61.5 15 -10.2 13.6 0 0
17:19 1029 30.39 858 25.34 16.4 61.4 17 -8.9 16 0 0
17:20 1029 30.39 858 25.34 16.3 61.3 16 -9.9 14.1 0 0
17:21 1029 30.39 858 25.34 16.2 61.1 15 -10.6 13 0 0
17:22 1029 30.39 858 25.34 16.2 61.1 15 -10.1 13.8 0 0
17:23 1029 30.39 858 25.34 16.2 61.2 16 -9.5 14.9 0 0
17:24 1029 30.39 858 25.34 16.3 61.3 15 -10.5 13.1 0 0
17:25 1029 30.39 858 25.34 16.4 61.5 15 -10.3 13.4 0 0
17:26 1029 30.39 858 25.34 16.5 61.7 15 -10.1 13.9 0 0
17:27 1029 30.39 858 25.34 16.7 62 15 -9.7 14.5 0 0
17:28 1029 30.39 858 25.34 16.7 62.1 16 -9.3 15.2 0 0
17:29 1029 30.39 858 25.34 16.8 62.2 16 -9.5 15 0 0
17:30 1029 30.39 858 25.34 16.8 62.2 15 -9.5 14.9 0 0
17:31 1029 30.39 858 25.34 16.9 62.4 16 -9.2 15.4 0 0
17:32 1029 30.39 858 25.34 16.8 62.2 15 -10.2 13.7 0 0
17:33 1029 30.39 858 25.34 16.7 62 16 -9.5 14.9 0 0
17:34 1029 30.39 858 25.34 16.6 61.9 15 -10 14 0 0
17:35 1029 30.39 858 25.34 16.6 61.8 16 -9.3 15.2 0 0
17:36 1029 30.39 858 25.34 16.6 61.8 15 -9.9 14.2 0 0
17:37 1029 30.39 858 25.34 16.5 61.7 15 -10.4 13.3 0 0
17:38 1029 30.39 858 25.34 16.4 61.5 16 -9.2 15.4 0 0
17:39 1029 30.39 858 25.34 16.4 61.5 15 -9.9 14.1 0 0
17:40 1029 30.39 858 25.34 16.4 61.6 16 -9.1 15.7 0 0
17:41 1029 30.39 858 25.34 16.4 61.5 16 -9.8 14.3 0 0
17:42 1029 30.39 858 25.34 16.4 61.4 16 -9.3 15.2 0 0
17:43 1029 30.39 858 25.34 16.3 61.3 19 -7.1 19.2 0 0
17:44 1029 30.39 858 25.34 16.3 61.3 17 -8.7 16.3 0 0
17:45 1029 30.39 858 25.34 16.3 61.3 17 -8.9 16.1 0 0
17:46 1029 30.39 858 25.34 16.4 61.4 16 -9.3 15.3 0 0
17:47 1029 30.39 858 25.34 16.4 61.5 16 -9.4 15 0 0
17:48 1029 30.39 858 25.34 16.4 61.6 16 -9.7 14.6 0 0
17:49 1029 30.39 858 25.34 16.3 61.3 17 -8.6 16.5 0 0
17:50 1029 30.39 858 25.34 16.1 61.1 17 -9.1 15.5 0 0
17:51 1029 30.39 858 25.34 16.2 61.1 17 -8.9 16 0 0
17:52 1029 30.39 858 25.34 16.1 61 16 -9.7 14.6 0 0
17:53 1029 30.39 858 25.34 16 60.9 18 -8.3 17.1 0 0
17:54 1029 30.39 858 25.34 16.1 61 18 -8.1 17.5 0 0
17:55 1029 30.39 858 25.34 16.2 61.1 18 -8.2 17.2 0 0
17:56 1029 30.39 858 25.34 16.2 61.1 16 -9.5 15 0 0
17:57 1029 30.39 858 25.34 16.1 60.9 15 -10.4 13.3 0 0
17:58 1029 30.39 858 25.34 16 60.8 17 -9.3 15.2 0 0
17:59 1029 30.39 858 25.34 16 60.8 16 -9.7 14.5 0 0
18:00 1029 30.39 858 25.34 16 60.9 17 -9.2 15.4 0 0
18:01 1029 30.39 858 25.34 16.1 61 19 -7.7 18.2 0 0
18:02 1029 30.39 858 25.34 16.1 60.9 17 -9.1 15.6 0 0
18:03 1029 30.39 858 25.34 16.1 60.9 18 -8.2 17.3 0 0
18:04 1029 30.39 858 25.34 16.1 61 16 -9.8 14.4 0 0
18:05 1029 30.39 858 25.34 16.1 60.9 16 -10.1 13.8 0 0
18:06 1029 30.39 858 25.34 16 60.8 18 -8.5 16.7 0 0
18:07 1029 30.39 858 25.34 16 60.8 17 -8.9 16 0 0
18:08 1029 30.39 858 25.34 16 60.8 15 -10.4 13.2 0 0
18:09 1029 30.39 858 25.34 16 60.8 15 -10.4 13.2 0 0
18:10 1029 30.39 858 25.34 16.1 61 15 -10.5 13 0 0
18:11 1029 30.39 858 25.34 16.3 61.3 15 -10.5 13.1 0 0
18:12 1029 30.39 858 25.34 16.4 61.6 15 -10 13.9 0 0
18:13 1029 30.39 858 25.34 16.5 61.7 16 -9 15.8 0 0
18:14 1029 30.39 858 25.34 16.5 61.7 16 -9.4 15.1 0 0
18:15 1029 30.39 858 25.34 16.4 61.5 19 -7.4 18.7 0 0
18:16 1029 30.39 858 25.34 16.2 61.2 15 -10.1 13.8 0 0
18:17 1029 30.39 858 25.34 16 60.9 15 -10.4 13.4 0 0
18:18 1029 30.39 858 25.34 16 60.7 17 -9.3 15.2 0 0
18:19 1029 30.39 858 25.34 15.9 60.7 17 -8.7 16.3 0 0
18:20 1029 30.39 858 25.34 15.9 60.7 18 -8.2 17.3 0 0
18:21 1029 30.39 858 25.34 15.9 60.6 18 -8.4 16.9 0 0
18:22 1029 30.39 858 25.34 15.9 60.5 19 -7.5 18.5 0 0
18:23 1029 30.39 858 25.34 15.8 60.4 16 -9.8 14.3 0 0
18:24 1029 30.39 858 25.34 15.7 60.3 18 -8.5 16.7 0 0
18:25 1029 30.39 858 25.34 15.7 60.2 19 -7.7 18.1 0 0
18:26 1029 30.39 858 25.34 15.7 60.2 17 -8.9 16 0 0
18:27 1029 30.39 858 25.34 15.7 60.2 16 -9.8 14.4 0 0
18:28 1029 30.39 858 25.34 15.7 60.3 18 -8.2 17.2 0 0
18:29 1029 30.39 858 25.34 15.7 60.3 16 -9.9 14.2 0 0
18:30 1029 30.39 858 25.34 15.7 60.3 16 -10.2 13.6 0 0
18:31 1029 30.39 858 25.34 15.8 60.4 18 -8.4 16.9 0 0
18:32 1029 30.39 858 25.34 15.8 60.4 16 -10.1 13.8 0 0
18:33 1029 30.39 858 25.34 15.8 60.4 17 -9.4 15.2 0 0
18:34 1029 30.39 858 25.34 15.7 60.3 16 -9.8 14.4 0 0
18:35 1029 30.39 858 25.34 15.6 60.2 17 -9 15.9 0 0
18:36 1029 30.39 858 25.34 15.6 60.1 17 -9.4 15.1 0 0
18:37 1029 30.39 858 25.34 15.5 59.9 18 -8.9 16 0 0
18:38 1029 30.39 858 25.34 15.5 59.9 20 -7.6 18.3 0 0
18:39 1029 30.39 858 25.34 15.5 59.9 18 -8.7 16.3 0 0
18:40 1029 30.39 858 25.34 15.5 59.8 16 -9.9 14.2 0 0
18:41 1029 30.39 858 25.34 15.5 59.8 19 -8 17.6 0 0
18:42 1029 30.39 858 25.34 15.5 59.8 17 -9.3 15.3 0 0
18:43 1029 30.39 858 25.34 15.5 59.9 16 -10 14 0 0
18:44 1029 30.39 858 25.34 15.5 59.9 16 -10.2 13.7 0 0
18:45 1029 30.39 858 25.34 15.5 60 19 -8 17.7 0 0
18:46 1029 30.39 858 25.34 15.4 59.8 18 -8.7 16.4 0 0
18:47 1029 30.39 858 25.34 15.4 59.7 17 -9.7 14.5 0 0
18:48 1029 30.39 858 25.34 15.3 59.6 18 -9.1 15.5 0 0
18:49 1029 30.39 858 25.34 15.3 59.5 18 -8.6 16.6 0 0
18:50 1029 30.39 858 25.34 15.2 59.4 18 -8.6 16.4 0 0
18:51 1029 30.39 858 25.34 15.2 59.3 20 -7.8 18 0 0
18:52 1029 30.39 858 25.34 15 59.1 22 -6.7 19.9 0 0
18:53 1029 30.39 858 25.34 14.9 58.8 21 -7.1 19.1 0 0
18:54 1029 30.39 858 25.34 14.8 58.6 23 -6.2 20.8 0 0
18:55 1029 30.39 858 25.34 14.5 58.1 21 -7.5 18.5 0 0
18:56 1029 30.39 858 25.34 14.3 57.8 20 -8.3 17.1 0 0
18:57 1029 30.39 858 25.34 14.2 57.6 20 -8.1 17.3 0 0
18:58 1029 30.39 858 25.34 14.1 57.5 21 -8 17.6 0 0
18:59 1029 30.39 858 25.34 14.2 57.5 20 -8.7 16.4 0 0
19:00 1029 30.39 858 25.34 14.2 57.5 19 -9.1 15.5 0 0
19:01 1029 30.39 858 25.34 14.2 57.6 21 -7.9 17.7 0 0
19:02 1029 30.39 858 25.34 14.2 57.6 20 -8.4 16.9 0 0
19:03 1029 30.39 858 25.34 14.2 57.6 20 -8.4 16.8 0 0
19:04 1029 30.39 858 25.34 14.2 57.6 20 -8.3 17.1 0 0
19:05 1029 30.39 858 25.34 14.2 57.5 19 -8.8 16.1 0 0
19:06 1029 30.39 858 25.34 14.2 57.5 20 -8.7 16.4 0 0
19:07 1029 30.39 858 25.34 14.1 57.4 21 -7.8 17.9 0 0
19:08 1029 30.39 858 25.34 13.9 57.1 21 -8 17.6 0 0
19:09 1029 30.39 858 25.34 13.8 56.9 20 -8.9 16 0 0
19:10 1029 30.39 858 25.34 13.9 56.9 21 -8.2 17.2 0 0
19:11 1029 30.39 858 25.34 13.9 57 20 -8.7 16.3 0 0
19:12 1029 30.39 858 25.34 13.9 57.1 20 -8.9 15.9 0 0
19:13 1029 30.39 858 25.34 14 57.2 20 -8.4 16.9 0 0
19:14 1029 30.39 858 25.34 13.9 57 22 -7.7 18.2 0 0
19:15 1029 30.39 858 25.34 13.8 56.8 22 -7.7 18.2 0 0
19:16 1029 30.39 858 25.34 13.6 56.5 22 -7.4 18.6 0 0
19:17 1029 30.39 858 25.34 13.5 56.2 24 -6.6 20.1 0 0
19:18 1029 30.39 858 25.34 13.1 55.5 24 -6.8 19.8 0 0
19:19 1029 30.39 858 25.34 12.8 55.1 24 -7.4 18.7 0 0
19:20 1029 30.39 858 25.34 12.8 55 24 -7.3 18.9 0 0
19:21 1029 30.39 858 25.34 12.6 54.7 26 -6.2 20.8 0 0
19:22 1029 30.39 858 25.34 12.3 54.1 25 -6.9 19.5 0 0
19:23 1029 30.39 858 25.34 12.2 53.9 24 -7.5 18.4 0 0
19:24 1029 30.39 858 25.34 12.2 54 23 -8.3 17.1 0 0
19:25 1029 30.39 858 25.34 12.4 54.3 23 -8.2 17.2 0 0
19:26 1029 30.39 858 25.34 12.5 54.4 23 -8 17.7 0 0
19:27 1029 30.39 858 25.34 12.4 54.4 25 -7.2 19.1 0 0
19:28 1029 30.39 858 25.34 12.1 53.7 27 -6.2 20.9 0 0
19:29 1029 30.39 858 25.34 11.7 53.1 27 -6.6 20.1 0 0
19:30 1029 30.39 858 25.34 11.6 52.9 27 -6.6 20.2 0 0
19:31 1029 30.39 858 25.34 11.4 52.6 27 -6.8 19.7 0 0
19:32 1029 30.39 858 25.34 11.3 52.3 30 -5.8 21.5 0 0
19:33 1029 30.39 858 25.34 10.8 51.4 32 -5.4 22.2 0 0
19:34 1029 30.39 858 25.34 10.1 50.1 33 -5.5 22.1 0 0
19:35 1029 30.39 858 25.34 9.6 49.3 32 -6.1 21 0 0
19:36 1029 30.39 858 25.34 9.5 49 33 -6 21.1 0 0
19:37 1029 30.39 858 25.34 9.4 48.8 33 -6.1 21 0 0
19:38 1029 30.39 858 25.34 9.2 48.5 35 -5.7 21.8 0 0
19:39 1029 30.39 858 25.34 8.7 47.7 37 -5.1 22.8 0 0
19:40 1029 30.39 858 25.34 8.3 46.9 37 -5.7 21.8 0 0
19:41 1029 30.39 858 25.34 8.2 46.8 36 -5.8 21.5 0 0
19:42 1029 30.39 858 25.34 8.4 47 35 -6.1 21 0 0
19:43 1029 30.39 858 25.34 8.6 47.5 35 -6.2 20.9 0 0
19:44 1029 30.39 858 25.34 8.8 47.8 34 -6.4 20.5 0 0
19:45 1029 30.39 858 25.34 9.1 48.3 32 -6.6 20.1 0 0
19:46 1029 30.39 858 25.34 9.4 48.9 32 -6.4 20.5 0 0
19:47 1029 30.39 858 25.34 9.5 49.2 33 -6.1 21.1 0 0
19:48 1029 30.39 858 25.34 9.4 48.9 33 -6 21.3 0 0
19:49 1029 30.39 858 25.34 9.2 48.5 35 -5.4 22.3 0 0
19:50 1029 30.39 858 25.34 8.7 47.6 38 -5 23 0 0
19:51 1029 30.39 858 25.34 8.1 46.6 40 -4.8 23.4 0 0
19:52 1029 30.39 858 25.34 7.5 45.6 40 -5.1 22.8 0 0
19:53 1029 30.39 858 25.34 7.5 45.4 38 -5.8 21.5 0 0
19:54 1029 30.39 858 25.34 7.4 45.3 38 -6 21.3 0 0
19:55 1029 30.39 858 25.34 7.1 44.7 39 -6.1 21 0 0
19:56 1029 30.39 858 25.34 7 44.5 40 -5.8 21.5 0 0
19:57 1029 30.39 858 25.34 6.9 44.4 40 -5.8 21.6 0 0
19:58 1029 30.39 858 25.34 6.8 44.3 40 -5.7 21.7 0 0
19:59 1029 30.39 858 25.34 6.7 44.1 41 -5.5 22.1 0 0
20:00 1029 30.39 858 25.34 6.5 43.7 43 -5.2 22.6 0 0
20:01 1029 30.39 858 25.34 6.1 43 45 -5 22.9 0 0
20:02 1029 30.39 858 25.34 5.7 42.3 46 -4.9 23.1 0 0
20:03 1029 30.39 858 25.34 5.4 41.8 46 -5.3 22.4 0 0
20:04 1029 30.39 859 25.37 5.3 41.6 46 -5.5 22.2 0 0
20:05 1029 30.39 859 25.37 5.2 41.4 46 -5.5 22 0 0
20:06 1029 30.39 859 25.37 5.2 41.3 46 -5.5 22 0 0
20:07 1029 30.39 859 25.37 5.2 41.3 46 -5.6 22 0 0
20:08 1029 30.39 859 25.37 5.1 41.3 45 -5.7 21.7 0 0
20:09 1029 30.39 858 25.34 5.1 41.2 46 -5.7 21.8 0 0
20:10 1029 30.39 858 25.34 5.1 41.2 46 -5.7 21.7 0 0
20:11 1029 30.39 858 25.34 5.2 41.3 45 -5.7 21.8 0 0
20:12 1029 30.39 858 25.34 5.2 41.3 45 -5.8 21.6 0 0
20:13 1029 30.39 858 25.34 5.3 41.5 45 -5.8 21.5 0 0
20:14 1029 30.39 859 25.37 5.4 41.7 44 -6 21.2 0 0
20:15 1029 30.39 859 25.37 5.5 41.9 43 -6 21.2 0 0
20:16 1029 30.39 859 25.37 5.6 42.2 43 -5.9 21.4 0 0
20:17 1029 30.39 859 25.37 5.6 42.2 43 -5.9 21.4 0 0
20:18 1029 30.39 859 25.37 5.6 42.2 43 -6.1 21.1 0 0
20:19 1029 30.39 859 25.37 5.7 42.2 42 -6.1 21 0 0
20:20 1029 30.39 859 25.37 5.7 42.2 42 -6.1 21 0 0
20:21 1029 30.39 859 25.37 5.7 42.2 43 -6 21.2 0 0
20:22 1029 30.39 859 25.37 5.6 42.2 42 -6.2 20.9 0 0
20:23 1029 30.39 859 25.37 5.7 42.3 42 -6.1 20.9 0 0
20:24 1029 30.39 859 25.37 5.7 42.3 42 -6.2 20.8 0 0
20:25 1029 30.39 859 25.37 5.7 42.2 42 -6.3 20.7 0 0
20:26 1029 30.39 859 25.37 5.7 42.2 42 -6.2 20.9 0 0
20:27 1029 30.39 859 25.37 5.6 42.2 42 -6.2 20.8 0 0
20:28 1029 30.39 859 25.37 5.6 42.1 42 -6.4 20.6 0 0
20:29 1029 30.39 859 25.37 5.7 42.3 41 -6.5 20.3 0 0
20:30 1029 30.39 859 25.37 5.7 42.3 41 -6.4 20.4 0 0
20:31 1029 30.39 859 25.37 5.7 42.3 41 -6.4 20.4 0 0
20:32 1029 30.39 859 25.37 5.7 42.2 42 -6.3 20.6 0 0
20:33 1030 30.42 859 25.37 5.6 42.1 42 -6.4 20.5 0 0
20:34 1030 30.42 859 25.37 5.5 42 42 -6.3 20.6 0 0
20:35 1030 30.42 859 25.37 5.5 41.8 42 -6.3 20.6 0 0
20:36 1030 30.42 859 25.37 5.4 41.8 42 -6.4 20.5 0 0
20:37 1030 30.42 859 25.37 5.4 41.8 43 -6.2 20.9 0 0
20:38 1030 30.42 859 25.37 5.4 41.7 44 -6 21.1 0 0
20:39 1030 30.42 859 25.37 5.3 41.5 44 -6 21.3 0 0
20:40 1030 30.42 859 25.37 5.2 41.4 44 -6.1 21.1 0 0
20:41 1030 30.42 859 25.37 5.2 41.4 44 -6.1 21.1 0 0
20:42 1030 30.42 859 25.37 5.2 41.4 45 -5.9 21.3 0 0
20:43 1030 30.42 859 25.37 5.1 41.2 45 -5.7 21.7 0 0
20:44 1030 30.42 859 25.37 4.9 40.8 47 -5.6 21.9 0 0
20:45 1030 30.42 859 25.37 4.7 40.4 47 -5.6 21.9 0 0
20:46 1030 30.42 859 25.37 4.5 40.1 48 -5.6 22 0 0
20:47 1030 30.42 859 25.37 4.3 39.8 48 -5.7 21.8 0 0
20:48 1030 30.42 859 25.37 4.2 39.6 48 -5.7 21.7 0 0
20:49 1030 30.42 859 25.37 4.2 39.6 47 -6 21.2 0 0
20:50 1030 30.42 859 25.37 4.3 39.7 47 -6.1 21 0 0
20:51 1030 30.42 859 25.37 4.4 39.9 46 -6.3 20.7 0 0
20:52 1030 30.42 859 25.37 4.6 40.3 45 -6.3 20.6 0 0
20:53 1030 30.42 859 25.37 4.8 40.6 44 -6.4 20.5 0 0
20:54 1030 30.42 859 25.37 4.9 40.8 44 -6.3 20.6 0 0
20:55 1030 30.42 859 25.37 4.9 40.9 44 -6.2 20.8 0 0
20:56 1030 30.42 859 25.37 4.9 40.8 44 -6.3 20.7 0 0
20:57 1030 30.42 859 25.37 4.8 40.7 45 -6.1 21 0 0
20:58 1030 30.42 859 25.37 4.7 40.4 45 -6.2 20.9 0 0
20:59 1030 30.42 859 25.37 4.5 40.2 46 -6.2 20.9 0 0
21:00 1030 30.42 859 25.37 4.4 39.9 47 -6 21.2 0 0
21:01 1030 30.42 859 25.37 4.3 39.7 47 -6 21.3 0 0
21:02 1030 30.42 859 25.37 4.1 39.4 48 -5.9 21.4 0 0
21:03 1030 30.42 859 25.37 4 39.2 48 -5.9 21.4 0 0
21:04 1030 30.42 859 25.37 3.9 39 49 -5.8 21.5 0 0
21:05 1030 30.42 859 25.37 3.7 38.7 49 -5.9 21.4 0 0
21:06 1030 30.42 859 25.37 3.6 38.6 50 -5.9 21.3 0 0
21:07 1030 30.42 859 25.37 3.6 38.4 49 -6.1 21 0 0
21:08 1030 30.42 859 25.37 3.5 38.3 49 -6.1 21 0 0
21:09 1030 30.42 859 25.37 3.5 38.3 49 -6.1 21 0 0
21:10 1030 30.42 859 25.37 3.5 38.3 49 -6.2 20.9 0 0
21:11 1030 30.42 859 25.37 3.6 38.5 49 -6.1 21 0 0
21:12 1030 30.42 859 25.37 3.6 38.6 50 -5.9 21.3 0 0
21:13 1030 30.42 859 25.37 3.5 38.4 50 -5.9 21.4 0 0
21:14 1030 30.42 859 25.37 3.5 38.3 52 -5.5 22 0 0
21:15 1030 30.42 859 25.37 3.5 38.3 52 -5.6 22 0 0
21:16 1030 30.42 859 25.37 3.5 38.3 52 -5.5 22.1 0 0
21:17 1030 30.42 859 25.37 3.6 38.4 52 -5.5 22.1 0 0
21:18 1030 30.42 859 25.37 3.6 38.5 52 -5.5 22.1 0 0
21:19 1030 30.42 859 25.37 3.7 38.7 50 -5.7 21.8 0 0
21:20 1030 30.42 859 25.37 4.1 39.4 49 -5.7 21.7 0 0
21:21 1030 30.42 859 25.37 4.5 40.1 47 -5.8 21.6 0 0
21:22 1030 30.42 859 25.37 4.8 40.7 47 -5.7 21.8 0 0
21:23 1030 30.42 859 25.37 5.1 41.1 46 -5.6 21.9 0 0
21:24 1030 30.42 859 25.37 5.2 41.4 46 -5.4 22.2 0 0
21:25 1030 30.42 859 25.37 5.2 41.4 46 -5.5 22.1 0 0
21:26 1030 30.42 859 25.37 5.2 41.3 46 -5.5 22.1 0 0
21:27 1030 30.42 859 25.37 5.1 41.2 46 -5.6 21.8 0 0
21:28 1030 30.42 859 25.37 5.2 41.3 46 -5.6 21.8 0 0
21:29 1030 30.42 859 25.37 5.1 41.2 46 -5.6 21.9 0 0
21:30 1030 30.42 859 25.37 4.8 40.6 48 -5.4 22.3 0 0
21:31 1030 30.42 859 25.37 4.1 39.3 49 -5.6 21.9 0 0
21:32 1030 30.42 859 25.37 3.6 38.5 51 -5.5 22 0 0
21:33 1030 30.42 859 25.37 3.4 38.2 52 -5.5 22.2 0 0
21:34 1030 30.42 859 25.37 3.3 38 53 -5.4 22.2 0 0
21:35 1030 30.42 859 25.37 3.3 37.9 53 -5.5 22.2 0 0
21:36 1030 30.42 859 25.37 3.3 37.9 52 -5.6 22 0 0
21:37 1030 30.42 859 25.37 3.2 37.7 53 -5.6 22 0 0
21:38 1030 30.42 859 25.37 3 37.3 51 -6.2 20.9 0 0
21:39 1030 30.42 859 25.37 3 37.3 51 -6.1 21 0 0
21:40 1030 30.42 859 25.37 3 37.4 51 -6.3 20.7 0 0
21:41 1030 30.42 859 25.37 3.1 37.6 50 -6.4 20.5 0 0
21:42 1030 30.42 859 25.37 3.1 37.7 49 -6.4 20.4 0 0
21:43 1030 30.42 859 25.37 3.1 37.6 49 -6.6 20.1 0 0
21:44 1030 30.42 859 25.37 3.2 37.7 49 -6.7 20 0 0
21:45 1030 30.42 859 25.37 3.3 37.9 48 -6.7 19.9 0 0
21:46 1030 30.42 859 25.37 3.4 38.2 47 -6.7 19.9 0 0
21:47 1030 30.42 859 25.37 3.6 38.5 47 -6.5 20.2 0 0
21:48 1030 30.42 859 25.37 3.7 38.7 49 -6.1 21.1 0 0
21:49 1030 30.42 859 25.37 3.6 38.5 47 -6.6 20.2 0 0
21:50 1030 30.42 859 25.37 3.6 38.4 48 -6.4 20.5 0 0
21:51 1030 30.42 859 25.37 3.5 38.4 48 -6.5 20.2 0 0
21:52 1030 30.42 859 25.37 3.5 38.3 47 -6.7 20 0 0
21:53 1030 30.42 859 25.37 3.4 38.2 48 -6.6 20.1 0 0
21:54 1030 30.42 859 25.37 3.1 37.7 49 -6.5 20.3 0 0
21:55 1030 30.42 859 25.37 2.8 37 51 -6.5 20.4 0 0
21:56 1030 30.42 859 25.37 2.4 36.4 51 -6.8 19.7 0 0
21:57 1030 30.42 859 25.37 2.3 36.2 50 -7.1 19.2 0 0
21:58 1030 30.42 859 25.37 2.5 36.5 49 -7.3 18.9 0 0
21:59 1030 30.42 859 25.37 2.6 36.6 49 -7 19.3 0 0
22:00 1030 30.42 859 25.37 2.6 36.6 49 -7.1 19.2 0 0
22:01 1030 30.42 859 25.37 2.5 36.4 50 -6.9 19.6 0 0
22:02 1030 30.42 859 25.37 2.3 36.2 51 -6.8 19.7 0 0
22:03 1030 30.42 859 25.37 2.2 36 51 -6.9 19.5 0 0
22:04 1030 30.42 859 25.37 2.6 36.6 50 -6.8 19.8 0 0
22:05 1030 30.42 859 25.37 2.6 36.6 51 -6.6 20 0 0
22:06 1030 30.42 859 25.37 2.7 36.8 51 -6.6 20.1 0 0
22:07 1030 30.42 859 25.37 2.7 36.9 51 -6.5 20.3 0 0
22:08 1030 30.42 859 25.37 2.6 36.7 50 -6.8 19.8 0 0
22:09 1030 30.42 859 25.37 2.6 36.6 50 -6.7 19.9 0 0
22:10 1030 30.42 859 25.37 2.5 36.4 50 -6.9 19.7 0 0
22:11 1030 30.42 859 25.37 2.6 36.6 49 -7.1 19.3 0 0
22:12 1030 30.42 859 25.37 2.8 37.1 48 -7.1 19.3 0 0
22:13 1030 30.42 859 25.37 3 37.5 47 -7.1 19.2 0 0
22:14 1030 30.42 859 25.37 3.3 38 47 -7 19.3 0 0
22:15 1030 30.42 859 25.37 3.6 38.5 46 -7 19.5 0 0
22:16 1030 30.42 859 25.37 3.7 38.6 46 -6.9 19.6 0 0
22:17 1030 30.42 859 25.37 3.4 38.2 48 -6.6 20 0 0
22:18 1030 30.42 859 25.37 3.2 37.7 49 -6.5 20.4 0 0
22:19 1030 30.42 859 25.37 3 37.4 49 -6.7 20 0 0
22:20 1030 30.42 859 25.37 3 37.3 49 -6.7 20 0 0
22:21 1030 30.42 859 25.37 2.9 37.2 51 -6.4 20.5 0 0
22:22 1030 30.42 859 25.37 2.8 37 51 -6.4 20.5 0 0
22:23 1030 30.42 859 25.37 2.6 36.6 51 -6.5 20.3 0 0
22:24 1030 30.42 859 25.37 2.5 36.5 52 -6.4 20.5 0 0
22:25 1030 30.42 859 25.37 2.4 36.3 52 -6.4 20.6 0 0
22:26 1030 30.42 859 25.37 2.4 36.3 53 -6.3 20.6 0 0
22:27 1030 30.42 859 25.37 2.4 36.2 52 -6.6 20.2 0 0
22:28 1030 30.42 859 25.37 2.6 36.7 51 -6.6 20.2 0 0
22:29 1030 30.42 859 25.37 2.9 37.2 49 -6.8 19.8 0 0
22:30 1030 30.42 859 25.37 3.2 37.8 48 -6.8 19.7 0 0
22:31 1030 30.42 859 25.37 3.5 38.3 48 -6.6 20.2 0 0
22:32 1030 30.42 860 25.4 3.5 38.3 48 -6.4 20.4 0 0
22:33 1030 30.42 859 25.37 3.4 38.1 48 -6.5 20.3 0 0
22:34 1030 30.42 860 25.4 3.2 37.8 50 -6.3 20.6 0 0
22:35 1030 30.42 860 25.4 3 37.4 50 -6.4 20.4 0 0
22:36 1030 30.42 859 25.37 3 37.3 49 -6.8 19.8 0 0
22:37 1030 30.42 859 25.37 3 37.4 50 -6.5 20.4 0 0
22:38 1030 30.42 859 25.37 2.9 37.2 51 -6.3 20.6 0 0
22:39 1030 30.42 859 25.37 2.7 36.9 51 -6.4 20.4 0 0
22:40 1030 30.42 859 25.37 2.6 36.7 52 -6.2 20.9 0 0
22:41 1030 30.42 859 25.37 2.4 36.4 52 -6.5 20.2 0 0
22:42 1030 30.42 860 25.4 2.5 36.4 53 -6.2 20.9 0 0
22:43 1030 30.42 859 25.37 2.2 36 53 -6.4 20.4 0 0
22:44 1030 30.42 859 25.37 2.2 36 52 -6.5 20.2 0 0
22:45 1030 30.42 859 25.37 2.2 36 53 -6.5 20.3 0 0
22:46 1030 30.42 859 25.37 2.3 36.1 52 -6.6 20.1 0 0
22:47 1030 30.42 859 25.37 2.4 36.4 50 -7 19.3 0 0
22:48 1030 30.42 859 25.37 2.8 37.1 50 -6.7 20 0 0
22:49 1030 30.42 859 25.37 2.9 37.2 50 -6.5 20.3 0 0
22:50 1030 30.42 859 25.37 2.8 37 50 -6.6 20.2 0 0
22:51 1030 30.42 860 25.4 2.7 36.9 51 -6.5 20.3 0 0
22:52 1030 30.42 860 25.4 2.7 36.8 51 -6.3 20.6 0 0
22:53 1030 30.42 860 25.4 2.7 36.9 51 -6.5 20.3 0 0
22:54 1030 30.42 860 25.4 2.8 37 50 -6.6 20.2 0 0
22:55 1030 30.42 860 25.4 2.9 37.2 50 -6.6 20.2 0 0
22:56 1030 30.42 860 25.4 3 37.4 50 -6.5 20.2 0 0
22:57 1030 30.42 860 25.4 3 37.5 49 -6.7 20 0 0
22:58 1030 30.42 860 25.4 3.1 37.7 49 -6.4 20.4 0 0
22:59 1030 30.42 860 25.4 3.1 37.5 50 -6.5 20.4 0 0
23:00 1030 30.42 860 25.4 3 37.3 50 -6.3 20.6 0 0
23:01 1030 30.42 860 25.4 2.8 37 51 -6.4 20.6 0 0
23:02 1030 30.42 860 25.4 2.7 36.9 51 -6.3 20.6 0 0
23:03 1030 30.42 860 25.4 2.6 36.8 52 -6.3 20.6 0 0
23:04 1030 30.42 860 25.4 2.6 36.6 52 -6.4 20.5 0 0
23:05 1030 30.42 860 25.4 2.5 36.5 52 -6.4 20.5 0 0
23:06 1030 30.42 860 25.4 2.5 36.5 52 -6.4 20.6 0 0
23:07 1030 30.42 860 25.4 2.4 36.3 53 -6.3 20.7 0 0
23:08 1030 30.42 860 25.4 2.3 36.1 53 -6.4 20.6 0 0
23:09 1030 30.42 860 25.4 2.2 36 53 -6.4 20.5 0 0
23:10 1030 30.42 860 25.4 2.2 35.9 53 -6.4 20.4 0 0
23:11 1030 30.42 860 25.4 2.1 35.7 53 -6.6 20.2 0 0
23:12 1030 30.42 860 25.4 2 35.7 53 -6.6 20.2 0 0
23:13 1030 30.42 860 25.4 2 35.6 53 -6.7 20 0 0
23:14 1030 30.42 860 25.4 2.1 35.7 52 -6.7 19.9 0 0
23:15 1030 30.42 860 25.4 2.1 35.8 52 -6.6 20 0 0
23:16 1030 30.42 860 25.4 2.2 35.9 52 -6.7 19.9 0 0
23:17 1030 30.42 860 25.4 2.2 36 52 -6.7 19.9 0 0
23:18 1030 30.42 860 25.4 2.3 36.1 51 -6.7 19.9 0 0
23:19 1030 30.42 860 25.4 2.4 36.2 51 -6.8 19.8 0 0
23:20 1030 30.42 860 25.4 2.4 36.4 51 -6.8 19.8 0 0
23:21 1030 30.42 860 25.4 2.5 36.4 50 -6.8 19.7 0 0
23:22 1030 30.42 860 25.4 2.5 36.5 50 -6.9 19.5 0 0
23:23 1030 30.42 860 25.4 2.6 36.7 50 -6.9 19.7 0 0
23:24 1030 30.42 860 25.4 2.6 36.6 49 -7.1 19.2 0 0
23:25 1031 30.45 860 25.4 2.7 36.8 48 -7.2 19.1 0 0
23:26 1031 30.45 860 25.4 2.7 36.9 49 -7.1 19.3 0 0
23:27 1031 30.45 860 25.4 2.8 37 49 -7 19.4 0 0
23:28 1031 30.45 860 25.4 3 37.3 47 -7.4 18.8 0 0
23:29 1031 30.45 860 25.4 3.4 38.1 44 -7.6 18.3 0 0
23:30 1030 30.42 860 25.4 3.9 39 43 -7.5 18.5 0 0
23:31 1031 30.45 860 25.4 4.3 39.7 42 -7.6 18.3 0 0
23:32 1031 30.45 860 25.4 4.7 40.5 40 -7.6 18.3 0 0
23:33 1031 30.45 860 25.4 5 41 40 -7.4 18.7 0 0
23:34 1031 30.45 860 25.4 5.2 41.4 39 -7.5 18.5 0 0
23:35 1031 30.45 860 25.4 5.5 41.9 39 -7.4 18.7 0 0
23:36 1031 30.45 860 25.4 5.7 42.2 38 -7.5 18.6 0 0
23:37 1031 30.45 860 25.4 5.9 42.6 38 -7.4 18.8 0 0
23:38 1031 30.45 860 25.4 6.1 42.9 38 -7.3 18.9 0 0
23:39 1031 30.45 860 25.4 6.1 43 38 -7.2 19.1 0 0
23:40 1031 30.45 860 25.4 6.2 43.1 38 -7.1 19.2 0 0
23:41 1031 30.45 860 25.4 6.2 43.1 38 -7 19.4 0 0
23:42 1031 30.45 860 25.4 6.2 43.1 39 -6.9 19.6 0 0
23:43 1031 30.45 860 25.4 6.2 43.1 39 -6.7 20 0 0
23:44 1031 30.45 860 25.4 6.1 42.9 40 -6.5 20.4 0 0
23:45 1031 30.45 860 25.4 5.8 42.5 41 -6.4 20.5 0 0
23:46 1031 30.45 860 25.4 5.5 42 41 -6.6 20 0 0
23:47 1031 30.45 860 25.4 5.3 41.6 43 -6.2 20.9 0 0
23:48 1031 30.45 860 25.4 4.8 40.6 46 -5.8 21.5 0 0
23:49 1031 30.45 860 25.4 4.2 39.5 48 -6 21.2 0 0
23:50 1031 30.45 860 25.4 3.8 38.9 49 -5.8 21.6 0 0
23:51 1031 30.45 860 25.4 3.4 38.2 51 -5.8 21.6 0 0
23:52 1031 30.45 860 25.4 3.2 37.7 52 -5.9 21.4 0 0
23:53 1031 30.45 860 25.4 3 37.4 52 -6 21.3 0 0
23:54 1031 30.45 860 25.4 3 37.3 51 -6.1 21 0 0
23:55 1031 30.45 860 25.4 3 37.5 51 -6 21.1 0 0
23:56 1031 30.45 860 25.4 3 37.4 52 -6 21.3 0 0
23:57 1031 30.45 860 25.4 2.9 37.2 53 -5.8 21.5 0 0
23:58 1031 30.45 860 25.4 2.7 36.9 52 -6.1 21 0 0
23:59 1031 30.45 860 25.4 2.6 36.7 54 -5.8 21.5 0 0
24:00 1031 30.45 860 25.4 2.4 36.3 54 -6 21.2 0 0